FDB3PL OMDB-LROP
Flight info
| Callsign | FDB3PL |
|---|---|
| Flight time | 5h 51m |
| Altitude | 32000 |
| Route | ANVIX R401 GIDIS G783 VAVIM DCT D228L DCT 2340N5516E DCT AE401 DCT GOLGU M550 RIBOT/N0412F280 M550 MIGMA M628 AMBAG/N0443F320 M321 KIA T503 RARLO/N0448F340 T503 OVANO L768 FIRAS R655 KTN Q538 ALE/N0433F350 DCT GOLF DCT TUSYR DCT KIVZE/N0429F340 DCT POGEN UL605 BELSU UM861 BUK UL621 ODERO L621 REVDA DCT BIRLU DCT CND DCT EBEKU DCT RIVOS DCT IDARU |
| Aircraft | B738/M-SDFGHIRWX/LB1 |
Departure
| Time | 2026-04-25 07:14 |
|---|---|
| Airport | Dubai International Airport (OMDB) |
Arrival
| Time | 2026-04-25 13:05 |
|---|---|
| Airport | Bucharest Henri Coandă International Airport (LROP) |
| Time | Latitude | Longitude | Altitude | Speed | Heading |
|---|---|---|---|---|---|
| 2026-04-25 06:28 | 25.26676 | 55.35394 | 42 ft | 0 kts | 31° |
| 2026-04-25 06:44 | 25.26675 | 55.35394 | 42 ft | 1 kts | 31° |
| 2026-04-25 06:44 | 25.26664 | 55.35386 | 42 ft | 3 kts | 31° |
| 2026-04-25 06:44 | 25.26648 | 55.35375 | 42 ft | 3 kts | 31° |
| 2026-04-25 06:44 | 25.26631 | 55.35363 | 42 ft | 3 kts | 39° |
| 2026-04-25 06:45 | 25.26619 | 55.35344 | 42 ft | 3 kts | 76° |
| 2026-04-25 06:45 | 25.26620 | 55.35322 | 42 ft | 3 kts | 110° |
| 2026-04-25 06:45 | 25.26624 | 55.35314 | 42 ft | 0 kts | 121° |
| 2026-04-25 06:49 | 25.26623 | 55.35315 | 42 ft | 1 kts | 121° |
| 2026-04-25 06:50 | 25.26617 | 55.35325 | 42 ft | 2 kts | 126° |
| 2026-04-25 06:50 | 25.26601 | 55.35344 | 42 ft | 4 kts | 134° |
| 2026-04-25 06:50 | 25.26580 | 55.35373 | 42 ft | 5 kts | 124° |
| 2026-04-25 06:50 | 25.26567 | 55.35397 | 42 ft | 2 kts | 122° |
| 2026-04-25 06:51 | 25.26561 | 55.35407 | 42 ft | 1 kts | 122° |
| 2026-04-25 06:51 | 25.26555 | 55.35418 | 42 ft | 2 kts | 122° |
| 2026-04-25 06:51 | 25.26542 | 55.35440 | 42 ft | 4 kts | 122° |
| 2026-04-25 06:51 | 25.26522 | 55.35471 | 42 ft | 6 kts | 130° |
| 2026-04-25 06:52 | 25.26483 | 55.35482 | 42 ft | 7 kts | 195° |
| 2026-04-25 06:52 | 25.26433 | 55.35478 | 42 ft | 8 kts | 164° |
| 2026-04-25 06:52 | 25.26398 | 55.35526 | 42 ft | 9 kts | 121° |
| 2026-04-25 06:52 | 25.26363 | 55.35590 | 42 ft | 10 kts | 121° |
| 2026-04-25 06:53 | 25.26323 | 55.35662 | 42 ft | 12 kts | 121° |
| 2026-04-25 06:53 | 25.26281 | 55.35740 | 42 ft | 13 kts | 121° |
| 2026-04-25 06:53 | 25.26233 | 55.35827 | 42 ft | 14 kts | 121° |
| 2026-04-25 06:53 | 25.26182 | 55.35919 | 42 ft | 14 kts | 121° |
| 2026-04-25 06:54 | 25.26124 | 55.36015 | 42 ft | 15 kts | 123° |
| 2026-04-25 06:54 | 25.26070 | 55.36117 | 42 ft | 16 kts | 121° |
| 2026-04-25 06:54 | 25.26012 | 55.36223 | 42 ft | 17 kts | 121° |
| 2026-04-25 06:54 | 25.25951 | 55.36335 | 42 ft | 17 kts | 122° |
| 2026-04-25 06:55 | 25.25885 | 55.36450 | 42 ft | 18 kts | 122° |
| 2026-04-25 06:55 | 25.25819 | 55.36568 | 42 ft | 18 kts | 121° |
| 2026-04-25 06:55 | 25.25753 | 55.36691 | 42 ft | 19 kts | 121° |
| 2026-04-25 06:55 | 25.25686 | 55.36816 | 42 ft | 19 kts | 121° |
| 2026-04-25 06:56 | 25.25614 | 55.36940 | 42 ft | 20 kts | 122° |
| 2026-04-25 06:56 | 25.25541 | 55.37070 | 42 ft | 20 kts | 121° |
| 2026-04-25 06:56 | 25.25469 | 55.37200 | 42 ft | 20 kts | 121° |
| 2026-04-25 06:56 | 25.25396 | 55.37335 | 42 ft | 20 kts | 122° |
| 2026-04-25 06:57 | 25.25321 | 55.37470 | 42 ft | 21 kts | 121° |
| 2026-04-25 06:57 | 25.25246 | 55.37607 | 42 ft | 21 kts | 121° |
| 2026-04-25 06:57 | 25.25208 | 55.37676 | 42 ft | 8 kts | 121° |
| 2026-04-25 06:57 | 25.25175 | 55.37738 | 42 ft | 10 kts | 121° |
| 2026-04-25 06:58 | 25.25136 | 55.37808 | 42 ft | 11 kts | 121° |
| 2026-04-25 06:58 | 25.25094 | 55.37885 | 42 ft | 13 kts | 124° |
| 2026-04-25 06:58 | 25.25045 | 55.37970 | 42 ft | 14 kts | 122° |
| 2026-04-25 06:58 | 25.24993 | 55.38063 | 42 ft | 15 kts | 122° |
| 2026-04-25 06:59 | 25.24948 | 55.38143 | 42 ft | 8 kts | 121° |
| 2026-04-25 06:59 | 25.24922 | 55.38190 | 42 ft | 6 kts | 121° |
| 2026-04-25 06:59 | 25.24891 | 55.38210 | 42 ft | 6 kts | 193° |
| 2026-04-25 06:59 | 25.24857 | 55.38194 | 42 ft | 0 kts | 211° |
| 2026-04-25 07:08 | 25.24853 | 55.38191 | 42 ft | 2 kts | 211° |
| 2026-04-25 07:08 | 25.24837 | 55.38180 | 42 ft | 3 kts | 211° |
| 2026-04-25 07:08 | 25.24812 | 55.38164 | 42 ft | 5 kts | 211° |
| 2026-04-25 07:09 | 25.24778 | 55.38141 | 42 ft | 6 kts | 211° |
| 2026-04-25 07:09 | 25.24772 | 55.38098 | 42 ft | 6 kts | 301° |
| 2026-04-25 07:09 | 25.24782 | 55.38076 | 42 ft | 0 kts | 301° |
| 2026-04-25 07:13 | 25.24790 | 55.38062 | 42 ft | 8 kts | 301° |
| 2026-04-25 07:13 | 25.24882 | 55.37893 | 42 ft | 57 kts | 301° |
| 2026-04-25 07:13 | 25.25211 | 55.37303 | 42 ft | 123 kts | 301° |
| 2026-04-25 07:13 | 25.25769 | 55.36298 | 42 ft | 180 kts | 302° |
| 2026-04-25 07:14 | 25.26463 | 55.35029 | 496 ft | 195 kts | 301° |
| 2026-04-25 07:14 | 25.27134 | 55.33749 | 1434 ft | 186 kts | 296° |
| 2026-04-25 07:14 | 25.27768 | 55.32514 | 2134 ft | 193 kts | 300° |
| 2026-04-25 07:14 | 25.28522 | 55.31181 | 2467 ft | 215 kts | 301° |
| 2026-04-25 07:15 | 25.28945 | 55.29547 | 2870 ft | 229 kts | 272° |
| 2026-04-25 07:15 | 25.28624 | 55.27805 | 3552 ft | 235 kts | 252° |
| 2026-04-25 07:15 | 25.28051 | 55.26093 | 3884 ft | 241 kts | 250° |
| 2026-04-25 07:15 | 25.27386 | 55.24386 | 3938 ft | 242 kts | 247° |
| 2026-04-25 07:16 | 25.26685 | 55.22717 | 3993 ft | 240 kts | 246° |
| 2026-04-25 07:16 | 25.25978 | 55.21049 | 4031 ft | 239 kts | 246° |
| 2026-04-25 07:16 | 25.25272 | 55.19389 | 4058 ft | 239 kts | 246° |
| 2026-04-25 07:16 | 25.24409 | 55.17832 | 4040 ft | 241 kts | 228° |
| 2026-04-25 07:17 | 25.22988 | 55.16850 | 4066 ft | 244 kts | 201° |
| 2026-04-25 07:17 | 25.21322 | 55.16492 | 4158 ft | 245 kts | 185° |
| 2026-04-25 07:17 | 25.19571 | 55.16655 | 4488 ft | 261 kts | 163° |
| 2026-04-25 07:17 | 25.18003 | 55.17654 | 5094 ft | 272 kts | 139° |
| 2026-04-25 07:18 | 25.16858 | 55.19378 | 5544 ft | 286 kts | 114° |
| 2026-04-25 07:18 | 25.16229 | 55.21463 | 6310 ft | 288 kts | 107° |
| 2026-04-25 07:18 | 25.15491 | 55.23534 | 7052 ft | 292 kts | 114° |
| 2026-04-25 07:18 | 25.14564 | 55.25538 | 7645 ft | 299 kts | 118° |
| 2026-04-25 07:19 | 25.13509 | 55.27518 | 7954 ft | 300 kts | 120° |
| 2026-04-25 07:19 | 25.12497 | 55.29534 | 7993 ft | 301 kts | 117° |
| 2026-04-25 07:19 | 25.11523 | 55.31584 | 8065 ft | 298 kts | 116° |
| 2026-04-25 07:19 | 25.10573 | 55.33646 | 8610 ft | 302 kts | 115° |
| 2026-04-25 07:20 | 25.09692 | 55.35753 | 8891 ft | 306 kts | 113° |
| 2026-04-25 07:20 | 25.08819 | 55.37893 | 8988 ft | 307 kts | 113° |
| 2026-04-25 07:20 | 25.07934 | 55.40055 | 8995 ft | 307 kts | 113° |
| 2026-04-25 07:20 | 25.07085 | 55.42197 | 9025 ft | 304 kts | 111° |
| 2026-04-25 07:21 | 25.06261 | 55.44329 | 9563 ft | 304 kts | 111° |
| 2026-04-25 07:21 | 25.05427 | 55.46488 | 10316 ft | 308 kts | 111° |
| 2026-04-25 07:21 | 25.04565 | 55.48719 | 10610 ft | 326 kts | 111° |
| 2026-04-25 07:21 | 25.03660 | 55.51062 | 10870 ft | 344 kts | 111° |
| 2026-04-25 07:22 | 25.02699 | 55.53550 | 11151 ft | 359 kts | 111° |
| 2026-04-25 07:22 | 25.01652 | 55.56059 | 11787 ft | 362 kts | 116° |
| 2026-04-25 07:22 | 25.00414 | 55.58461 | 12595 ft | 360 kts | 119° |
| 2026-04-25 07:22 | 24.99095 | 55.60834 | 13170 ft | 364 kts | 120° |
| 2026-04-25 07:23 | 24.97781 | 55.63219 | 13850 ft | 365 kts | 119° |
| 2026-04-25 07:23 | 24.96485 | 55.65597 | 14502 ft | 365 kts | 119° |
| 2026-04-25 07:23 | 24.95162 | 55.68034 | 14905 ft | 376 kts | 122° |
| 2026-04-25 07:23 | 24.93794 | 55.70515 | 15332 ft | 381 kts | 124° |
| 2026-04-25 07:24 | 24.92281 | 55.72928 | 15905 ft | 383 kts | 127° |
| 2026-04-25 07:24 | 24.90688 | 55.75270 | 16417 ft | 387 kts | 129° |
| 2026-04-25 07:24 | 24.89053 | 55.77652 | 16918 ft | 391 kts | 128° |
| 2026-04-25 07:24 | 24.87428 | 55.80066 | 17445 ft | 393 kts | 128° |
| 2026-04-25 07:25 | 24.85799 | 55.82506 | 17906 ft | 397 kts | 128° |
| 2026-04-25 07:25 | 24.84154 | 55.84973 | 18363 ft | 400 kts | 128° |
| 2026-04-25 07:25 | 24.82498 | 55.87423 | 18810 ft | 404 kts | 128° |
| 2026-04-25 07:25 | 24.80767 | 55.89869 | 19242 ft | 405 kts | 135° |
| 2026-04-25 07:26 | 24.78568 | 55.91809 | 19632 ft | 405 kts | 152° |
| 2026-04-25 07:26 | 24.75966 | 55.92951 | 20089 ft | 403 kts | 168° |
| 2026-04-25 07:26 | 24.73196 | 55.93385 | 20513 ft | 403 kts | 177° |
| 2026-04-25 07:26 | 24.70383 | 55.93541 | 20926 ft | 405 kts | 180° |
| 2026-04-25 07:27 | 24.67571 | 55.93544 | 21265 ft | 409 kts | 183° |
| 2026-04-25 07:27 | 24.64710 | 55.93460 | 21648 ft | 411 kts | 184° |
| 2026-04-25 07:27 | 24.61869 | 55.93033 | 22018 ft | 411 kts | 197° |
| 2026-04-25 07:27 | 24.59233 | 55.91871 | 22386 ft | 410 kts | 210° |
| 2026-04-25 07:28 | 24.56872 | 55.90182 | 22751 ft | 410 kts | 218° |
| 2026-04-25 07:28 | 24.54633 | 55.88215 | 23113 ft | 412 kts | 221° |
| 2026-04-25 07:28 | 24.52475 | 55.86147 | 23471 ft | 413 kts | 223° |
| 2026-04-25 07:28 | 24.50319 | 55.84041 | 23821 ft | 415 kts | 223° |
| 2026-04-25 07:29 | 24.48133 | 55.81920 | 24160 ft | 417 kts | 223° |
| 2026-04-25 07:29 | 24.45947 | 55.79808 | 24489 ft | 419 kts | 223° |
| 2026-04-25 07:29 | 24.43779 | 55.77720 | 24807 ft | 421 kts | 223° |
| 2026-04-25 07:29 | 24.41571 | 55.75597 | 25122 ft | 423 kts | 223° |
| 2026-04-25 07:30 | 24.39343 | 55.73459 | 25419 ft | 425 kts | 223° |
| 2026-04-25 07:30 | 24.37116 | 55.71318 | 25710 ft | 426 kts | 223° |
| 2026-04-25 07:30 | 24.34897 | 55.69188 | 25990 ft | 428 kts | 223° |
| 2026-04-25 07:30 | 24.32645 | 55.67028 | 26274 ft | 430 kts | 223° |
| 2026-04-25 07:31 | 24.30382 | 55.64860 | 26543 ft | 432 kts | 223° |
| 2026-04-25 07:31 | 24.28113 | 55.62677 | 26807 ft | 434 kts | 224° |
| 2026-04-25 07:31 | 24.25988 | 55.60365 | 27061 ft | 435 kts | 229° |
| 2026-04-25 07:31 | 24.24046 | 55.57821 | 27301 ft | 436 kts | 233° |
| 2026-04-25 07:32 | 24.22236 | 55.55145 | 27549 ft | 437 kts | 235° |
| 2026-04-25 07:32 | 24.20445 | 55.52429 | 27847 ft | 437 kts | 235° |
| 2026-04-25 07:32 | 24.18671 | 55.49769 | 28195 ft | 436 kts | 235° |
| 2026-04-25 07:32 | 24.16698 | 55.47235 | 28523 ft | 438 kts | 225° |
| 2026-04-25 07:33 | 24.14294 | 55.45172 | 28851 ft | 441 kts | 214° |
| 2026-04-25 07:33 | 24.11570 | 55.43615 | 29174 ft | 443 kts | 206° |
| 2026-04-25 07:33 | 24.08697 | 55.42347 | 29506 ft | 444 kts | 203° |
| 2026-04-25 07:33 | 24.05806 | 55.41217 | 29831 ft | 444 kts | 201° |
| 2026-04-25 07:34 | 24.02894 | 55.40127 | 30159 ft | 443 kts | 201° |
| 2026-04-25 07:34 | 23.99970 | 55.39037 | 30487 ft | 443 kts | 201° |
| 2026-04-25 07:34 | 23.98029 | 55.38314 | 30701 ft | 442 kts | 201° |
| 2026-04-25 07:34 | 23.94159 | 55.36867 | 31126 ft | 442 kts | 201° |
| 2026-04-25 07:35 | 23.91249 | 55.35783 | 31442 ft | 441 kts | 201° |
| 2026-04-25 07:35 | 23.88343 | 55.34702 | 31757 ft | 441 kts | 201° |
| 2026-04-25 07:35 | 23.86378 | 55.33972 | 31956 ft | 441 kts | 201° |
| 2026-04-25 07:35 | 23.83494 | 55.32901 | 31981 ft | 443 kts | 201° |
| 2026-04-25 07:36 | 23.77653 | 55.30736 | 31991 ft | 441 kts | 201° |
| 2026-04-25 07:36 | 23.71908 | 55.28551 | 31979 ft | 437 kts | 207° |
| 2026-04-25 07:37 | 23.69340 | 55.26802 | 31985 ft | 432 kts | 223° |
| 2026-04-25 07:37 | 23.67340 | 55.24389 | 31990 ft | 428 kts | 238° |
| 2026-04-25 07:37 | 23.66024 | 55.21491 | 31998 ft | 425 kts | 252° |
| 2026-04-25 07:37 | 23.65233 | 55.18391 | 31999 ft | 424 kts | 258° |
| 2026-04-25 07:38 | 23.64223 | 55.12090 | 31994 ft | 423 kts | 262° |
| 2026-04-25 07:38 | 23.63296 | 55.05730 | 31988 ft | 422 kts | 261° |
| 2026-04-25 07:39 | 23.62349 | 54.99447 | 31984 ft | 422 kts | 261° |
| 2026-04-25 07:39 | 23.61375 | 54.93119 | 31984 ft | 422 kts | 261° |
| 2026-04-25 07:40 | 23.60405 | 54.86821 | 31983 ft | 422 kts | 261° |
| 2026-04-25 07:40 | 23.59430 | 54.80504 | 31979 ft | 422 kts | 261° |
| 2026-04-25 07:41 | 23.58449 | 54.74211 | 31978 ft | 422 kts | 261° |
| 2026-04-25 07:41 | 23.57457 | 54.67897 | 31978 ft | 422 kts | 261° |
| 2026-04-25 07:42 | 23.56461 | 54.61592 | 31968 ft | 422 kts | 260° |
| 2026-04-25 07:42 | 23.55459 | 54.55279 | 31965 ft | 422 kts | 260° |
| 2026-04-25 07:43 | 23.54454 | 54.48967 | 31964 ft | 422 kts | 260° |
| 2026-04-25 07:43 | 23.53452 | 54.42692 | 31964 ft | 422 kts | 260° |
| 2026-04-25 07:44 | 23.52440 | 54.36380 | 31964 ft | 423 kts | 260° |
| 2026-04-25 07:44 | 23.51429 | 54.30084 | 31964 ft | 424 kts | 260° |
| 2026-04-25 07:45 | 23.50408 | 54.23749 | 31964 ft | 424 kts | 260° |
| 2026-04-25 07:45 | 23.49380 | 54.17389 | 31964 ft | 424 kts | 260° |
| 2026-04-25 07:46 | 23.48361 | 54.11100 | 31964 ft | 425 kts | 260° |
| 2026-04-25 07:46 | 23.47329 | 54.04744 | 31964 ft | 425 kts | 260° |
| 2026-04-25 07:47 | 23.46291 | 53.98369 | 31965 ft | 428 kts | 259° |
| 2026-04-25 07:47 | 23.45251 | 53.92001 | 31964 ft | 429 kts | 259° |
| 2026-04-25 07:48 | 23.44205 | 53.85614 | 31964 ft | 428 kts | 259° |
| 2026-04-25 07:48 | 23.43155 | 53.79216 | 31964 ft | 428 kts | 259° |
| 2026-04-25 07:49 | 23.42103 | 53.72828 | 31964 ft | 428 kts | 259° |
| 2026-04-25 07:49 | 23.41054 | 53.66472 | 31964 ft | 428 kts | 259° |
| 2026-04-25 07:50 | 23.39996 | 53.60078 | 31964 ft | 428 kts | 259° |
| 2026-04-25 07:50 | 23.38945 | 53.53739 | 31964 ft | 428 kts | 259° |
| 2026-04-25 07:51 | 23.37881 | 53.47345 | 31964 ft | 428 kts | 259° |
| 2026-04-25 07:51 | 23.36816 | 53.40958 | 31964 ft | 428 kts | 259° |
| 2026-04-25 07:52 | 23.35757 | 53.34620 | 31964 ft | 428 kts | 259° |
| 2026-04-25 07:52 | 23.34687 | 53.28237 | 31964 ft | 428 kts | 259° |
| 2026-04-25 07:53 | 23.33614 | 53.21849 | 31964 ft | 428 kts | 259° |
| 2026-04-25 07:53 | 23.32548 | 53.15520 | 31964 ft | 428 kts | 259° |
| 2026-04-25 07:54 | 23.31467 | 53.09120 | 31964 ft | 428 kts | 259° |
| 2026-04-25 07:54 | 23.30396 | 53.02794 | 31964 ft | 428 kts | 259° |
| 2026-04-25 07:55 | 23.29318 | 52.96427 | 31964 ft | 428 kts | 259° |
| 2026-04-25 07:55 | 23.28250 | 52.90080 | 31964 ft | 428 kts | 259° |
| 2026-04-25 07:56 | 23.27164 | 52.83713 | 31964 ft | 428 kts | 259° |
| 2026-04-25 07:56 | 23.26070 | 52.77334 | 31965 ft | 428 kts | 259° |
| 2026-04-25 07:57 | 23.24981 | 52.71010 | 31964 ft | 428 kts | 259° |
| 2026-04-25 07:57 | 23.23767 | 52.64694 | 31964 ft | 427 kts | 253° |
| 2026-04-25 07:58 | 23.21590 | 52.58642 | 31964 ft | 428 kts | 243° |
| 2026-04-25 07:58 | 23.18717 | 52.52995 | 31964 ft | 428 kts | 244° |
| 2026-04-25 07:59 | 23.16502 | 52.47010 | 31964 ft | 427 kts | 251° |
| 2026-04-25 07:59 | 23.14593 | 52.40901 | 31741 ft | 420 kts | 251° |
| 2026-04-25 08:00 | 23.13660 | 52.37959 | 31491 ft | 411 kts | 251° |
| 2026-04-25 08:00 | 23.12736 | 52.35052 | 31239 ft | 403 kts | 251° |
| 2026-04-25 08:00 | 23.11832 | 52.32190 | 30987 ft | 396 kts | 251° |
| 2026-04-25 08:00 | 23.10943 | 52.29370 | 30735 ft | 392 kts | 251° |
| 2026-04-25 08:01 | 23.10057 | 52.26570 | 30485 ft | 392 kts | 251° |
| 2026-04-25 08:01 | 23.09167 | 52.23770 | 30235 ft | 391 kts | 251° |
| 2026-04-25 08:01 | 23.08294 | 52.21024 | 29987 ft | 389 kts | 251° |
| 2026-04-25 08:01 | 23.07411 | 52.18256 | 29736 ft | 387 kts | 251° |
| 2026-04-25 08:02 | 23.06532 | 52.15501 | 29486 ft | 385 kts | 251° |
| 2026-04-25 08:02 | 23.05657 | 52.12762 | 29235 ft | 383 kts | 251° |
| 2026-04-25 08:02 | 23.04783 | 52.10028 | 28984 ft | 381 kts | 251° |
| 2026-04-25 08:02 | 23.03916 | 52.07314 | 28733 ft | 379 kts | 250° |
| 2026-04-25 08:03 | 23.03049 | 52.04606 | 28482 ft | 378 kts | 250° |
| 2026-04-25 08:03 | 23.02200 | 52.01953 | 28234 ft | 376 kts | 250° |
| 2026-04-25 08:03 | 23.01345 | 51.99278 | 28005 ft | 373 kts | 250° |
| 2026-04-25 08:03 | 23.00490 | 51.96614 | 27968 ft | 372 kts | 250° |
| 2026-04-25 08:04 | 22.99635 | 51.93952 | 27965 ft | 373 kts | 250° |
| 2026-04-25 08:04 | 22.98776 | 51.91278 | 27966 ft | 377 kts | 250° |
| 2026-04-25 08:04 | 22.97901 | 51.88558 | 27969 ft | 386 kts | 250° |
| 2026-04-25 08:04 | 22.97015 | 51.85804 | 27970 ft | 395 kts | 250° |
| 2026-04-25 08:05 | 22.96098 | 51.82956 | 27970 ft | 404 kts | 250° |
| 2026-04-25 08:05 | 22.95158 | 51.80036 | 27969 ft | 412 kts | 250° |
| 2026-04-25 08:05 | 22.94215 | 51.77070 | 27968 ft | 419 kts | 251° |
| 2026-04-25 08:05 | 22.93254 | 51.74061 | 27966 ft | 426 kts | 250° |
| 2026-04-25 08:06 | 22.92270 | 51.70993 | 27966 ft | 432 kts | 250° |
| 2026-04-25 08:06 | 22.91274 | 51.67895 | 27965 ft | 438 kts | 250° |
| 2026-04-25 08:06 | 22.90271 | 51.64788 | 27965 ft | 443 kts | 250° |
| 2026-04-25 08:06 | 22.89243 | 51.61606 | 27965 ft | 447 kts | 250° |
| 2026-04-25 08:07 | 22.88210 | 51.58416 | 27964 ft | 448 kts | 250° |
| 2026-04-25 08:07 | 22.87179 | 51.55231 | 27964 ft | 447 kts | 250° |
| 2026-04-25 08:07 | 22.86160 | 51.52087 | 27964 ft | 446 kts | 250° |
| 2026-04-25 08:07 | 22.85262 | 51.48865 | 27963 ft | 447 kts | 256° |
| 2026-04-25 08:08 | 22.84754 | 51.45539 | 27963 ft | 447 kts | 264° |
| 2026-04-25 08:08 | 22.84638 | 51.42165 | 27965 ft | 448 kts | 270° |
| 2026-04-25 08:08 | 22.84781 | 51.38777 | 27965 ft | 448 kts | 272° |
| 2026-04-25 08:08 | 22.85031 | 51.35405 | 27964 ft | 449 kts | 274° |
| 2026-04-25 08:09 | 22.85282 | 51.32066 | 27964 ft | 449 kts | 273° |
| 2026-04-25 08:09 | 22.85525 | 51.28694 | 27964 ft | 449 kts | 273° |
| 2026-04-25 08:09 | 22.85761 | 51.25321 | 27964 ft | 449 kts | 273° |
| 2026-04-25 08:09 | 22.85994 | 51.21935 | 27964 ft | 449 kts | 273° |
| 2026-04-25 08:10 | 22.86223 | 51.18561 | 27964 ft | 449 kts | 273° |
| 2026-04-25 08:10 | 22.86450 | 51.15220 | 27964 ft | 449 kts | 273° |
| 2026-04-25 08:10 | 22.86678 | 51.11834 | 27964 ft | 449 kts | 273° |
| 2026-04-25 08:10 | 22.86906 | 51.08440 | 27964 ft | 449 kts | 273° |
| 2026-04-25 08:11 | 22.87131 | 51.05061 | 27964 ft | 448 kts | 273° |
| 2026-04-25 08:11 | 22.87351 | 51.01731 | 27964 ft | 448 kts | 273° |
| 2026-04-25 08:11 | 22.87574 | 50.98342 | 27964 ft | 448 kts | 273° |
| 2026-04-25 08:11 | 22.87796 | 50.94957 | 27964 ft | 448 kts | 273° |
| 2026-04-25 08:12 | 22.88017 | 50.91582 | 27964 ft | 448 kts | 273° |
| 2026-04-25 08:12 | 22.88234 | 50.88240 | 27964 ft | 448 kts | 273° |
| 2026-04-25 08:12 | 22.88453 | 50.84866 | 27964 ft | 448 kts | 273° |
| 2026-04-25 08:12 | 22.88671 | 50.81481 | 27964 ft | 448 kts | 272° |
| 2026-04-25 08:13 | 22.88889 | 50.78095 | 27964 ft | 448 kts | 272° |
| 2026-04-25 08:13 | 22.89108 | 50.74727 | 27964 ft | 449 kts | 273° |
| 2026-04-25 08:13 | 22.89333 | 50.71386 | 27964 ft | 449 kts | 273° |
| 2026-04-25 08:14 | 22.89782 | 50.64626 | 27964 ft | 448 kts | 273° |
| 2026-04-25 08:14 | 22.90002 | 50.61252 | 27964 ft | 448 kts | 273° |
| 2026-04-25 08:14 | 22.90222 | 50.57873 | 27964 ft | 448 kts | 273° |
| 2026-04-25 08:14 | 22.90440 | 50.54498 | 27964 ft | 448 kts | 272° |
| 2026-04-25 08:15 | 22.90654 | 50.51165 | 27964 ft | 448 kts | 272° |
| 2026-04-25 08:15 | 22.90871 | 50.47779 | 27964 ft | 448 kts | 272° |
| 2026-04-25 08:15 | 22.91085 | 50.44404 | 27964 ft | 448 kts | 272° |
| 2026-04-25 08:15 | 22.91300 | 50.41012 | 27964 ft | 448 kts | 272° |
| 2026-04-25 08:16 | 22.91513 | 50.37637 | 27964 ft | 448 kts | 272° |
| 2026-04-25 08:16 | 22.91726 | 50.34260 | 27964 ft | 448 kts | 272° |
| 2026-04-25 08:16 | 22.91935 | 50.30917 | 27964 ft | 448 kts | 272° |
| 2026-04-25 08:16 | 22.92146 | 50.27531 | 27964 ft | 448 kts | 272° |
| 2026-04-25 08:17 | 22.92356 | 50.24155 | 27964 ft | 448 kts | 272° |
| 2026-04-25 08:17 | 22.92566 | 50.20767 | 27964 ft | 448 kts | 272° |
| 2026-04-25 08:17 | 22.92775 | 50.17390 | 27964 ft | 448 kts | 272° |
| 2026-04-25 08:17 | 22.92980 | 50.14043 | 27964 ft | 448 kts | 272° |
| 2026-04-25 08:18 | 22.93187 | 50.10667 | 27964 ft | 448 kts | 272° |
| 2026-04-25 08:18 | 22.93394 | 50.07289 | 27964 ft | 448 kts | 272° |
| 2026-04-25 08:18 | 22.93600 | 50.03903 | 27964 ft | 448 kts | 272° |
| 2026-04-25 08:18 | 22.93803 | 50.00549 | 27964 ft | 448 kts | 272° |
| 2026-04-25 08:19 | 22.94010 | 49.97137 | 27964 ft | 448 kts | 272° |
| 2026-04-25 08:19 | 22.94212 | 49.93783 | 27964 ft | 448 kts | 272° |
| 2026-04-25 08:19 | 22.94414 | 49.90407 | 27964 ft | 448 kts | 272° |
| 2026-04-25 08:19 | 22.94617 | 49.87018 | 27964 ft | 448 kts | 272° |
| 2026-04-25 08:20 | 22.94815 | 49.83688 | 27964 ft | 448 kts | 272° |
| 2026-04-25 08:20 | 22.95016 | 49.80302 | 27964 ft | 448 kts | 272° |
| 2026-04-25 08:20 | 22.95216 | 49.76932 | 27964 ft | 448 kts | 272° |
| 2026-04-25 08:20 | 22.95415 | 49.73557 | 27964 ft | 448 kts | 272° |
| 2026-04-25 08:21 | 22.95615 | 49.70152 | 27965 ft | 448 kts | 272° |
| 2026-04-25 08:21 | 22.95810 | 49.66811 | 27965 ft | 448 kts | 272° |
| 2026-04-25 08:21 | 22.95943 | 49.64533 | 27964 ft | 448 kts | 272° |
| 2026-04-25 08:21 | 22.96203 | 49.60057 | 27964 ft | 448 kts | 272° |
| 2026-04-25 08:22 | 22.96399 | 49.56668 | 27964 ft | 448 kts | 272° |
| 2026-04-25 08:22 | 22.96595 | 49.53280 | 27964 ft | 448 kts | 272° |
| 2026-04-25 08:22 | 22.96723 | 49.51046 | 27964 ft | 448 kts | 272° |
| 2026-04-25 08:22 | 22.96983 | 49.46515 | 27963 ft | 448 kts | 272° |
| 2026-04-25 08:23 | 22.97173 | 49.43176 | 27962 ft | 449 kts | 272° |
| 2026-04-25 08:23 | 22.97366 | 49.39785 | 27962 ft | 449 kts | 272° |
| 2026-04-25 08:23 | 22.97493 | 49.37547 | 27962 ft | 449 kts | 272° |
| 2026-04-25 08:23 | 22.97686 | 49.34170 | 27962 ft | 449 kts | 272° |
| 2026-04-25 08:24 | 22.97885 | 49.30778 | 27962 ft | 449 kts | 272° |
| 2026-04-25 08:24 | 22.98078 | 49.27395 | 27962 ft | 449 kts | 272° |
| 2026-04-25 08:24 | 22.98268 | 49.24013 | 27962 ft | 449 kts | 272° |
| 2026-04-25 08:24 | 22.98455 | 49.20623 | 27962 ft | 448 kts | 272° |
| 2026-04-25 08:25 | 22.98639 | 49.17277 | 27962 ft | 448 kts | 272° |
| 2026-04-25 08:25 | 22.98823 | 49.13888 | 27962 ft | 448 kts | 272° |
| 2026-04-25 08:25 | 22.99007 | 49.10497 | 27962 ft | 448 kts | 272° |
| 2026-04-25 08:25 | 22.99188 | 49.07153 | 27962 ft | 448 kts | 272° |
| 2026-04-25 08:26 | 22.99371 | 49.03773 | 27962 ft | 448 kts | 272° |
| 2026-04-25 08:26 | 22.99554 | 49.00381 | 27962 ft | 448 kts | 272° |
| 2026-04-25 08:26 | 22.99775 | 48.97003 | 27962 ft | 449 kts | 274° |
| 2026-04-25 08:26 | 23.00053 | 48.93618 | 27962 ft | 449 kts | 274° |
| 2026-04-25 08:27 | 23.00334 | 48.90238 | 27962 ft | 449 kts | 274° |
| 2026-04-25 08:27 | 23.00609 | 48.86896 | 27962 ft | 449 kts | 274° |
| 2026-04-25 08:27 | 23.00883 | 48.83520 | 27962 ft | 449 kts | 274° |
| 2026-04-25 08:27 | 23.01157 | 48.80123 | 27962 ft | 449 kts | 274° |
| 2026-04-25 08:28 | 23.01424 | 48.76791 | 27962 ft | 449 kts | 274° |
| 2026-04-25 08:28 | 23.01694 | 48.73405 | 27963 ft | 449 kts | 274° |
| 2026-04-25 08:28 | 23.01962 | 48.70028 | 27962 ft | 449 kts | 274° |
| 2026-04-25 08:28 | 23.02229 | 48.66641 | 27962 ft | 449 kts | 274° |
| 2026-04-25 08:29 | 23.02494 | 48.63267 | 27962 ft | 449 kts | 274° |
| 2026-04-25 08:29 | 23.02770 | 48.59883 | 27962 ft | 449 kts | 274° |
| 2026-04-25 08:29 | 23.03041 | 48.56539 | 27962 ft | 449 kts | 274° |
| 2026-04-25 08:29 | 23.03313 | 48.53153 | 27962 ft | 449 kts | 274° |
| 2026-04-25 08:30 | 23.03582 | 48.49778 | 27962 ft | 449 kts | 274° |
| 2026-04-25 08:30 | 23.03850 | 48.46389 | 27962 ft | 449 kts | 274° |
| 2026-04-25 08:30 | 23.04113 | 48.43047 | 27962 ft | 449 kts | 274° |
| 2026-04-25 08:30 | 23.04377 | 48.39670 | 27962 ft | 449 kts | 274° |
| 2026-04-25 08:31 | 23.04641 | 48.36295 | 27962 ft | 449 kts | 274° |
| 2026-04-25 08:31 | 23.04901 | 48.32939 | 27962 ft | 449 kts | 274° |
| 2026-04-25 08:31 | 23.05163 | 48.29560 | 27962 ft | 449 kts | 274° |
| 2026-04-25 08:31 | 23.05425 | 48.26172 | 27962 ft | 449 kts | 274° |
| 2026-04-25 08:32 | 23.05685 | 48.22793 | 27962 ft | 449 kts | 274° |
| 2026-04-25 08:32 | 23.05944 | 48.19415 | 27962 ft | 449 kts | 274° |
| 2026-04-25 08:32 | 23.06202 | 48.16044 | 27962 ft | 449 kts | 274° |
| 2026-04-25 08:32 | 23.06461 | 48.12654 | 27962 ft | 449 kts | 273° |
| 2026-04-25 08:33 | 23.06723 | 48.09310 | 27962 ft | 449 kts | 274° |
| 2026-04-25 08:33 | 23.06985 | 48.05923 | 27962 ft | 449 kts | 274° |
| 2026-04-25 08:33 | 23.07242 | 48.02541 | 27962 ft | 449 kts | 273° |
| 2026-04-25 08:33 | 23.07498 | 47.99149 | 27962 ft | 449 kts | 273° |
| 2026-04-25 08:34 | 23.07747 | 47.95818 | 27962 ft | 449 kts | 273° |
| 2026-04-25 08:34 | 23.07998 | 47.92439 | 27962 ft | 449 kts | 273° |
| 2026-04-25 08:34 | 23.08248 | 47.89056 | 27962 ft | 449 kts | 273° |
| 2026-04-25 08:34 | 23.08498 | 47.85675 | 27962 ft | 449 kts | 273° |
| 2026-04-25 08:35 | 23.08844 | 47.82296 | 27950 ft | 450 kts | 281° |
| 2026-04-25 08:35 | 23.09890 | 47.79087 | 27956 ft | 453 kts | 295° |
| 2026-04-25 08:35 | 23.11664 | 47.76288 | 27961 ft | 458 kts | 310° |
| 2026-04-25 08:35 | 23.14034 | 47.73948 | 27968 ft | 461 kts | 320° |
| 2026-04-25 08:36 | 23.16658 | 47.71913 | 27965 ft | 462 kts | 323° |
| 2026-04-25 08:36 | 23.19338 | 47.70037 | 27963 ft | 463 kts | 326° |
| 2026-04-25 08:36 | 23.22086 | 47.68202 | 27963 ft | 463 kts | 326° |
| 2026-04-25 08:36 | 23.24839 | 47.66358 | 27962 ft | 463 kts | 326° |
| 2026-04-25 08:37 | 23.27588 | 47.64507 | 27962 ft | 463 kts | 326° |
| 2026-04-25 08:37 | 23.30297 | 47.62678 | 27983 ft | 463 kts | 323° |
| 2026-04-25 08:37 | 23.33062 | 47.60807 | 28029 ft | 465 kts | 323° |
| 2026-04-25 08:38 | 23.38566 | 47.57074 | 28078 ft | 465 kts | 323° |
| 2026-04-25 08:38 | 23.44042 | 47.53356 | 28099 ft | 465 kts | 323° |
| 2026-04-25 08:39 | 23.49539 | 47.49625 | 28109 ft | 465 kts | 323° |
| 2026-04-25 08:39 | 23.55005 | 47.45911 | 28110 ft | 465 kts | 323° |
| 2026-04-25 08:40 | 23.60518 | 47.42160 | 28110 ft | 465 kts | 323° |
| 2026-04-25 08:40 | 23.66007 | 47.38420 | 28110 ft | 465 kts | 323° |
| 2026-04-25 08:41 | 23.71468 | 47.34696 | 28110 ft | 465 kts | 323° |
| 2026-04-25 08:41 | 23.76961 | 47.30951 | 28110 ft | 465 kts | 323° |
| 2026-04-25 08:42 | 23.82464 | 47.27203 | 28110 ft | 465 kts | 323° |
| 2026-04-25 08:42 | 23.87925 | 47.23483 | 28110 ft | 464 kts | 323° |
| 2026-04-25 08:43 | 23.93417 | 47.19729 | 28110 ft | 464 kts | 323° |
| 2026-04-25 08:43 | 23.98862 | 47.15999 | 28110 ft | 464 kts | 323° |
| 2026-04-25 08:44 | 24.04349 | 47.12233 | 28110 ft | 464 kts | 323° |
| 2026-04-25 08:44 | 24.09800 | 47.08503 | 28109 ft | 464 kts | 324° |
| 2026-04-25 08:45 | 24.15620 | 47.05363 | 28110 ft | 469 kts | 332° |
| 2026-04-25 08:45 | 24.21647 | 47.02593 | 28110 ft | 469 kts | 332° |
| 2026-04-25 08:46 | 24.27681 | 46.99808 | 28110 ft | 469 kts | 332° |
| 2026-04-25 08:46 | 24.33661 | 46.97032 | 28110 ft | 469 kts | 332° |
| 2026-04-25 08:47 | 24.39668 | 46.94235 | 28110 ft | 469 kts | 332° |
| 2026-04-25 08:47 | 24.45688 | 46.91431 | 28110 ft | 469 kts | 332° |
| 2026-04-25 08:48 | 24.51672 | 46.88643 | 28110 ft | 469 kts | 332° |
| 2026-04-25 08:48 | 24.57699 | 46.85828 | 28110 ft | 470 kts | 332° |
| 2026-04-25 08:49 | 24.63682 | 46.83029 | 28110 ft | 469 kts | 332° |
| 2026-04-25 08:49 | 24.69711 | 46.80207 | 28110 ft | 470 kts | 332° |
| 2026-04-25 08:50 | 24.75693 | 46.77406 | 28110 ft | 468 kts | 332° |
| 2026-04-25 08:50 | 24.81684 | 46.74592 | 28110 ft | 465 kts | 331° |
| 2026-04-25 08:51 | 24.87597 | 46.71810 | 28106 ft | 451 kts | 331° |
| 2026-04-25 08:51 | 24.90439 | 46.70472 | 28172 ft | 433 kts | 331° |
| 2026-04-25 08:51 | 24.93129 | 46.69204 | 28331 ft | 419 kts | 330° |
| 2026-04-25 08:52 | 24.98210 | 46.66269 | 28632 ft | 401 kts | 319° |
| 2026-04-25 08:52 | 25.02437 | 46.62450 | 28780 ft | 408 kts | 311° |
| 2026-04-25 08:53 | 25.06634 | 46.58151 | 28969 ft | 419 kts | 311° |
| 2026-04-25 08:53 | 25.08737 | 46.55993 | 29272 ft | 406 kts | 311° |
| 2026-04-25 08:53 | 25.10785 | 46.53892 | 29919 ft | 396 kts | 311° |
| 2026-04-25 08:53 | 25.12818 | 46.51806 | 30064 ft | 402 kts | 311° |
| 2026-04-25 08:54 | 25.14883 | 46.49688 | 30150 ft | 410 kts | 311° |
| 2026-04-25 08:54 | 25.19107 | 46.45355 | 30516 ft | 419 kts | 311° |
| 2026-04-25 08:54 | 25.21239 | 46.43167 | 30988 ft | 416 kts | 311° |
| 2026-04-25 08:55 | 25.23357 | 46.40995 | 31445 ft | 414 kts | 311° |
| 2026-04-25 08:55 | 25.25465 | 46.38841 | 31924 ft | 411 kts | 310° |
| 2026-04-25 08:55 | 25.27572 | 46.36686 | 32098 ft | 415 kts | 310° |
| 2026-04-25 08:56 | 25.31851 | 46.32301 | 32112 ft | 427 kts | 310° |
| 2026-04-25 08:56 | 25.36215 | 46.27821 | 32112 ft | 426 kts | 310° |
| 2026-04-25 08:57 | 25.40560 | 46.23362 | 32112 ft | 425 kts | 310° |
| 2026-04-25 08:57 | 25.44882 | 46.18920 | 32112 ft | 425 kts | 310° |
| 2026-04-25 08:58 | 25.49213 | 46.14454 | 32112 ft | 425 kts | 310° |
| 2026-04-25 08:58 | 25.53547 | 46.09976 | 32112 ft | 425 kts | 310° |
| 2026-04-25 08:59 | 25.57848 | 46.05528 | 32112 ft | 425 kts | 310° |
| 2026-04-25 08:59 | 25.62182 | 46.01044 | 32113 ft | 425 kts | 310° |
| 2026-04-25 09:00 | 25.66488 | 45.96603 | 32112 ft | 425 kts | 310° |
| 2026-04-25 09:00 | 25.70812 | 45.92127 | 32112 ft | 425 kts | 310° |
| 2026-04-25 09:01 | 25.75135 | 45.87639 | 32112 ft | 425 kts | 310° |
| 2026-04-25 09:01 | 25.79432 | 45.83170 | 32112 ft | 425 kts | 310° |
| 2026-04-25 09:02 | 25.83736 | 45.78692 | 32112 ft | 425 kts | 310° |
| 2026-04-25 09:02 | 25.88053 | 45.74198 | 32112 ft | 424 kts | 310° |
| 2026-04-25 09:03 | 25.92358 | 45.69712 | 32112 ft | 424 kts | 310° |
| 2026-04-25 09:03 | 25.96677 | 45.65222 | 32112 ft | 424 kts | 310° |
| 2026-04-25 09:04 | 26.00965 | 45.60751 | 32112 ft | 424 kts | 310° |
| 2026-04-25 09:04 | 26.05273 | 45.56245 | 32112 ft | 424 kts | 309° |
| 2026-04-25 09:05 | 26.09549 | 45.51764 | 32112 ft | 424 kts | 309° |
| 2026-04-25 09:05 | 26.13860 | 45.47244 | 32112 ft | 424 kts | 309° |
| 2026-04-25 09:06 | 26.18166 | 45.42730 | 32112 ft | 424 kts | 309° |
| 2026-04-25 09:06 | 26.22447 | 45.38242 | 32112 ft | 424 kts | 309° |
| 2026-04-25 09:07 | 26.26737 | 45.33734 | 32112 ft | 424 kts | 309° |
| 2026-04-25 09:07 | 26.31021 | 45.29229 | 32094 ft | 421 kts | 308° |
| 2026-04-25 09:08 | 26.34863 | 45.25203 | 32076 ft | 421 kts | 308° |
| 2026-04-25 09:08 | 26.39141 | 45.20731 | 32058 ft | 421 kts | 307° |
| 2026-04-25 09:09 | 26.43414 | 45.16249 | 32046 ft | 421 kts | 307° |
| 2026-04-25 09:09 | 26.46952 | 45.12526 | 32047 ft | 420 kts | 307° |
| 2026-04-25 09:10 | 26.51903 | 45.07308 | 32053 ft | 420 kts | 307° |
| 2026-04-25 09:10 | 26.55435 | 45.03582 | 32049 ft | 420 kts | 307° |
| 2026-04-25 09:11 | 26.61849 | 44.96824 | 32016 ft | 424 kts | 306° |
| 2026-04-25 09:11 | 26.66145 | 44.92292 | 32004 ft | 423 kts | 306° |
| 2026-04-25 09:12 | 26.70409 | 44.87782 | 32000 ft | 424 kts | 306° |
| 2026-04-25 09:12 | 26.74701 | 44.83238 | 31996 ft | 424 kts | 306° |
| 2026-04-25 09:13 | 26.78989 | 44.78701 | 31994 ft | 424 kts | 306° |
| 2026-04-25 09:13 | 26.83277 | 44.74153 | 31994 ft | 424 kts | 306° |
| 2026-04-25 09:14 | 26.87550 | 44.69607 | 31994 ft | 423 kts | 306° |
| 2026-04-25 09:14 | 26.91811 | 44.65064 | 31994 ft | 423 kts | 306° |
| 2026-04-25 09:15 | 26.96062 | 44.60528 | 31994 ft | 423 kts | 306° |
| 2026-04-25 09:15 | 27.00311 | 44.55994 | 31994 ft | 423 kts | 306° |
| 2026-04-25 09:16 | 27.04624 | 44.51389 | 32120 ft | 433 kts | 306° |
| 2026-04-25 09:16 | 27.06822 | 44.49035 | 32259 ft | 438 kts | 306° |
| 2026-04-25 09:16 | 27.08997 | 44.46703 | 32691 ft | 434 kts | 306° |
| 2026-04-25 09:17 | 27.13316 | 44.42068 | 33699 ft | 425 kts | 306° |
| 2026-04-25 09:17 | 27.15454 | 44.39773 | 33946 ft | 424 kts | 306° |
| 2026-04-25 09:18 | 27.19725 | 44.35191 | 33987 ft | 423 kts | 306° |
| 2026-04-25 09:18 | 27.23945 | 44.30661 | 33994 ft | 421 kts | 305° |
| 2026-04-25 09:19 | 27.28187 | 44.26099 | 33994 ft | 421 kts | 305° |
| 2026-04-25 09:19 | 27.32406 | 44.21557 | 33994 ft | 421 kts | 305° |
| 2026-04-25 09:20 | 27.36635 | 44.16997 | 33994 ft | 421 kts | 305° |
| 2026-04-25 09:20 | 27.40839 | 44.12460 | 33994 ft | 421 kts | 305° |
| 2026-04-25 09:21 | 27.45077 | 44.07902 | 33994 ft | 420 kts | 305° |
| 2026-04-25 09:21 | 27.49306 | 44.03345 | 33994 ft | 420 kts | 305° |
| 2026-04-25 09:22 | 27.53502 | 43.98814 | 33994 ft | 420 kts | 305° |
| 2026-04-25 09:22 | 27.57725 | 43.94245 | 33996 ft | 420 kts | 305° |
| 2026-04-25 09:23 | 27.61950 | 43.89674 | 34003 ft | 420 kts | 305° |
| 2026-04-25 09:23 | 27.66150 | 43.85131 | 34003 ft | 420 kts | 305° |
| 2026-04-25 09:24 | 27.70361 | 43.80557 | 34003 ft | 420 kts | 305° |
| 2026-04-25 09:24 | 27.74568 | 43.75977 | 34003 ft | 420 kts | 305° |
| 2026-04-25 09:25 | 27.78747 | 43.71420 | 34004 ft | 419 kts | 305° |
| 2026-04-25 09:25 | 27.82955 | 43.66831 | 34004 ft | 420 kts | 305° |
| 2026-04-25 09:26 | 27.87064 | 43.62165 | 34003 ft | 416 kts | 302° |
| 2026-04-25 09:26 | 27.90989 | 43.57397 | 34003 ft | 415 kts | 302° |
| 2026-04-25 09:27 | 27.94935 | 43.52608 | 34003 ft | 415 kts | 302° |
| 2026-04-25 09:27 | 27.98857 | 43.47851 | 33994 ft | 416 kts | 302° |
| 2026-04-25 09:28 | 28.02821 | 43.43046 | 33977 ft | 417 kts | 302° |
| 2026-04-25 09:28 | 28.06782 | 43.38241 | 33973 ft | 417 kts | 302° |
| 2026-04-25 09:29 | 28.10739 | 43.33462 | 33965 ft | 418 kts | 302° |
| 2026-04-25 09:29 | 28.14725 | 43.28642 | 33944 ft | 419 kts | 303° |
| 2026-04-25 09:30 | 28.18692 | 43.23836 | 33930 ft | 419 kts | 302° |
| 2026-04-25 09:30 | 28.22675 | 43.19000 | 33931 ft | 419 kts | 302° |
| 2026-04-25 09:31 | 28.26660 | 43.14155 | 33932 ft | 419 kts | 302° |
| 2026-04-25 09:31 | 28.30639 | 43.09309 | 33926 ft | 419 kts | 302° |
| 2026-04-25 09:32 | 28.34595 | 43.04487 | 33920 ft | 419 kts | 302° |
| 2026-04-25 09:32 | 28.38570 | 42.99635 | 33928 ft | 419 kts | 302° |
| 2026-04-25 09:33 | 28.42537 | 42.94787 | 33957 ft | 418 kts | 302° |
| 2026-04-25 09:33 | 28.46483 | 42.89978 | 33970 ft | 418 kts | 302° |
| 2026-04-25 09:34 | 28.50431 | 42.85143 | 33967 ft | 417 kts | 302° |
| 2026-04-25 09:34 | 28.54383 | 42.80289 | 33966 ft | 417 kts | 302° |
| 2026-04-25 09:35 | 28.58333 | 42.75430 | 33968 ft | 417 kts | 302° |
| 2026-04-25 09:35 | 28.62251 | 42.70609 | 33970 ft | 417 kts | 302° |
| 2026-04-25 09:36 | 28.66196 | 42.65749 | 33967 ft | 417 kts | 302° |
| 2026-04-25 09:36 | 28.70142 | 42.60883 | 33956 ft | 416 kts | 302° |
| 2026-04-25 09:37 | 28.74059 | 42.56042 | 33955 ft | 416 kts | 302° |
| 2026-04-25 09:37 | 28.77963 | 42.51212 | 33955 ft | 416 kts | 302° |
| 2026-04-25 09:38 | 28.81888 | 42.46351 | 33956 ft | 416 kts | 302° |
| 2026-04-25 09:38 | 28.85832 | 42.41498 | 33951 ft | 417 kts | 302° |
| 2026-04-25 09:39 | 28.89744 | 42.36658 | 33951 ft | 416 kts | 302° |
| 2026-04-25 09:39 | 28.93669 | 42.31783 | 33950 ft | 416 kts | 302° |
| 2026-04-25 09:40 | 28.99546 | 42.24463 | 33953 ft | 416 kts | 302° |
| 2026-04-25 09:40 | 29.03439 | 42.19611 | 33948 ft | 416 kts | 302° |
| 2026-04-25 09:41 | 29.07337 | 42.14750 | 33942 ft | 414 kts | 302° |
| 2026-04-25 09:41 | 29.11234 | 42.09880 | 33940 ft | 414 kts | 302° |
| 2026-04-25 09:42 | 29.15101 | 42.05040 | 33942 ft | 414 kts | 302° |
| 2026-04-25 09:42 | 29.19006 | 42.00144 | 33947 ft | 415 kts | 302° |
| 2026-04-25 09:43 | 29.22860 | 41.95306 | 33925 ft | 407 kts | 302° |
| 2026-04-25 09:43 | 29.26633 | 41.90564 | 33911 ft | 404 kts | 302° |
| 2026-04-25 09:44 | 29.30448 | 41.85789 | 33905 ft | 405 kts | 303° |
| 2026-04-25 09:44 | 29.34233 | 41.81043 | 33910 ft | 406 kts | 302° |
| 2026-04-25 09:45 | 29.38047 | 41.76249 | 33907 ft | 405 kts | 302° |
| 2026-04-25 09:45 | 29.41838 | 41.71475 | 33905 ft | 404 kts | 302° |
| 2026-04-25 09:46 | 29.45598 | 41.66732 | 33905 ft | 404 kts | 302° |
| 2026-04-25 09:46 | 29.49398 | 41.61931 | 33905 ft | 404 kts | 302° |
| 2026-04-25 09:47 | 29.53163 | 41.57180 | 33905 ft | 404 kts | 302° |
| 2026-04-25 09:47 | 29.56964 | 41.52378 | 33925 ft | 407 kts | 305° |
| 2026-04-25 09:48 | 29.60770 | 41.47552 | 33953 ft | 412 kts | 305° |
| 2026-04-25 09:48 | 29.64622 | 41.42654 | 33966 ft | 411 kts | 305° |
| 2026-04-25 09:49 | 29.68436 | 41.37797 | 33970 ft | 411 kts | 305° |
| 2026-04-25 09:49 | 29.72273 | 41.32910 | 33971 ft | 411 kts | 305° |
| 2026-04-25 09:50 | 29.76317 | 41.28200 | 33973 ft | 415 kts | 310° |
| 2026-04-25 09:50 | 29.80646 | 41.23803 | 33974 ft | 417 kts | 312° |
| 2026-04-25 09:51 | 29.85001 | 41.19388 | 33976 ft | 416 kts | 311° |
| 2026-04-25 09:51 | 29.89316 | 41.14979 | 33975 ft | 416 kts | 311° |
| 2026-04-25 09:52 | 29.93639 | 41.10540 | 33976 ft | 416 kts | 311° |
| 2026-04-25 09:52 | 29.97949 | 41.06101 | 33976 ft | 416 kts | 311° |
| 2026-04-25 09:53 | 30.02291 | 41.01638 | 33973 ft | 416 kts | 311° |
| 2026-04-25 09:53 | 30.06598 | 40.97204 | 33978 ft | 416 kts | 311° |
| 2026-04-25 09:54 | 30.10928 | 40.92733 | 33977 ft | 417 kts | 311° |
| 2026-04-25 09:54 | 30.15226 | 40.88291 | 33977 ft | 416 kts | 311° |
| 2026-04-25 09:55 | 30.19554 | 40.83819 | 33976 ft | 416 kts | 311° |
| 2026-04-25 09:55 | 30.23851 | 40.79360 | 33975 ft | 416 kts | 311° |
| 2026-04-25 09:56 | 30.28165 | 40.74870 | 33979 ft | 417 kts | 311° |
| 2026-04-25 09:56 | 30.32451 | 40.70403 | 33979 ft | 416 kts | 311° |
| 2026-04-25 09:57 | 30.36777 | 40.65892 | 33976 ft | 417 kts | 311° |
| 2026-04-25 09:57 | 30.41075 | 40.61448 | 33977 ft | 417 kts | 312° |
| 2026-04-25 09:58 | 30.45437 | 40.56985 | 33969 ft | 417 kts | 312° |
| 2026-04-25 09:58 | 30.49796 | 40.52515 | 33972 ft | 417 kts | 312° |
| 2026-04-25 09:59 | 30.54111 | 40.48080 | 33968 ft | 417 kts | 312° |
| 2026-04-25 09:59 | 30.58473 | 40.43590 | 33967 ft | 417 kts | 312° |
| 2026-04-25 10:00 | 30.62787 | 40.39144 | 33967 ft | 417 kts | 312° |
| 2026-04-25 10:00 | 30.67154 | 40.34658 | 33967 ft | 417 kts | 312° |
| 2026-04-25 10:01 | 30.70773 | 40.30939 | 33963 ft | 417 kts | 312° |
| 2026-04-25 10:01 | 30.75125 | 40.26456 | 33966 ft | 417 kts | 312° |
| 2026-04-25 10:02 | 30.79455 | 40.21986 | 33962 ft | 417 kts | 312° |
| 2026-04-25 10:02 | 30.83798 | 40.17493 | 33965 ft | 418 kts | 312° |
| 2026-04-25 10:03 | 30.88133 | 40.13003 | 33967 ft | 419 kts | 312° |
| 2026-04-25 10:03 | 30.92495 | 40.08479 | 33966 ft | 419 kts | 312° |
| 2026-04-25 10:04 | 30.96834 | 40.03973 | 33969 ft | 421 kts | 312° |
| 2026-04-25 10:04 | 31.01218 | 39.99413 | 33968 ft | 421 kts | 312° |
| 2026-04-25 10:05 | 31.05589 | 39.94861 | 33968 ft | 420 kts | 312° |
| 2026-04-25 10:05 | 31.09932 | 39.90332 | 33969 ft | 420 kts | 312° |
| 2026-04-25 10:06 | 31.14299 | 39.85772 | 33968 ft | 422 kts | 312° |
| 2026-04-25 10:06 | 31.18659 | 39.81214 | 33968 ft | 424 kts | 312° |
| 2026-04-25 10:07 | 31.23068 | 39.76617 | 33967 ft | 423 kts | 312° |
| 2026-04-25 10:07 | 31.27437 | 39.72040 | 33970 ft | 423 kts | 312° |
| 2026-04-25 10:08 | 31.31793 | 39.67463 | 33978 ft | 422 kts | 312° |
| 2026-04-25 10:08 | 31.36162 | 39.62863 | 33979 ft | 422 kts | 312° |
| 2026-04-25 10:09 | 31.40518 | 39.58273 | 33982 ft | 420 kts | 312° |
| 2026-04-25 10:09 | 31.44862 | 39.53694 | 33984 ft | 419 kts | 312° |
| 2026-04-25 10:10 | 31.49164 | 39.49153 | 33987 ft | 418 kts | 313° |
| 2026-04-25 10:10 | 31.53497 | 39.44570 | 33986 ft | 418 kts | 313° |
| 2026-04-25 10:11 | 31.57804 | 39.40026 | 33985 ft | 418 kts | 313° |
| 2026-04-25 10:11 | 31.62143 | 39.35446 | 33988 ft | 418 kts | 313° |
| 2026-04-25 10:12 | 31.66465 | 39.30862 | 33991 ft | 418 kts | 313° |
| 2026-04-25 10:13 | 31.72925 | 39.23989 | 33991 ft | 420 kts | 312° |
| 2026-04-25 10:13 | 31.77236 | 39.19401 | 33990 ft | 420 kts | 313° |
| 2026-04-25 10:14 | 31.82014 | 39.15328 | 33991 ft | 428 kts | 324° |
| 2026-04-25 10:14 | 31.87315 | 39.12098 | 33993 ft | 431 kts | 328° |
| 2026-04-25 10:15 | 31.92696 | 39.08946 | 33992 ft | 431 kts | 328° |
| 2026-04-25 10:15 | 31.98022 | 39.05802 | 33992 ft | 431 kts | 328° |
| 2026-04-25 10:16 | 32.03401 | 39.02621 | 33992 ft | 432 kts | 328° |
| 2026-04-25 10:16 | 32.08762 | 38.99462 | 33992 ft | 431 kts | 328° |
| 2026-04-25 10:17 | 32.14143 | 38.96284 | 33992 ft | 431 kts | 328° |
| 2026-04-25 10:17 | 32.19490 | 38.93122 | 33992 ft | 433 kts | 328° |
| 2026-04-25 10:18 | 32.24894 | 38.89921 | 33992 ft | 435 kts | 328° |
| 2026-04-25 10:18 | 32.30315 | 38.86706 | 33992 ft | 435 kts | 328° |
| 2026-04-25 10:19 | 32.35714 | 38.83525 | 33992 ft | 436 kts | 328° |
| 2026-04-25 10:19 | 32.41162 | 38.80295 | 33992 ft | 438 kts | 328° |
| 2026-04-25 10:20 | 32.46593 | 38.77063 | 33992 ft | 436 kts | 328° |
| 2026-04-25 10:20 | 32.52028 | 38.73821 | 33992 ft | 436 kts | 328° |
| 2026-04-25 10:21 | 32.57420 | 38.70602 | 33992 ft | 438 kts | 328° |
| 2026-04-25 10:21 | 32.62877 | 38.67344 | 33992 ft | 437 kts | 328° |
| 2026-04-25 10:22 | 32.68334 | 38.64082 | 33993 ft | 439 kts | 328° |
| 2026-04-25 10:22 | 32.73768 | 38.60843 | 33992 ft | 439 kts | 328° |
| 2026-04-25 10:23 | 32.79232 | 38.57570 | 33980 ft | 438 kts | 328° |
| 2026-04-25 10:23 | 32.84648 | 38.54316 | 33967 ft | 438 kts | 328° |
| 2026-04-25 10:24 | 32.90103 | 38.51033 | 33964 ft | 438 kts | 328° |
| 2026-04-25 10:24 | 32.95526 | 38.47767 | 33964 ft | 438 kts | 328° |
| 2026-04-25 10:25 | 33.00983 | 38.44481 | 33964 ft | 438 kts | 328° |
| 2026-04-25 10:25 | 33.06398 | 38.41211 | 33963 ft | 438 kts | 328° |
| 2026-04-25 10:26 | 33.11843 | 38.37917 | 33963 ft | 438 kts | 328° |
| 2026-04-25 10:26 | 33.17280 | 38.34631 | 33963 ft | 438 kts | 328° |
| 2026-04-25 10:27 | 33.22715 | 38.31342 | 33964 ft | 438 kts | 328° |
| 2026-04-25 10:27 | 33.28118 | 38.28055 | 33963 ft | 437 kts | 328° |
| 2026-04-25 10:28 | 33.33540 | 38.24743 | 33963 ft | 437 kts | 328° |
| 2026-04-25 10:28 | 33.38968 | 38.21421 | 33963 ft | 437 kts | 328° |
| 2026-04-25 10:29 | 33.44384 | 38.18103 | 33963 ft | 436 kts | 328° |
| 2026-04-25 10:29 | 33.49779 | 38.14821 | 33963 ft | 437 kts | 328° |
| 2026-04-25 10:30 | 33.55172 | 38.11544 | 33963 ft | 436 kts | 328° |
| 2026-04-25 10:30 | 33.60611 | 38.08244 | 33967 ft | 435 kts | 328° |
| 2026-04-25 10:31 | 33.65991 | 38.04976 | 33963 ft | 436 kts | 328° |
| 2026-04-25 10:31 | 33.71403 | 38.01673 | 33962 ft | 436 kts | 328° |
| 2026-04-25 10:32 | 33.76814 | 37.98363 | 33973 ft | 434 kts | 327° |
| 2026-04-25 10:32 | 33.82171 | 37.95081 | 34001 ft | 430 kts | 327° |
| 2026-04-25 10:33 | 33.86974 | 37.91067 | 34015 ft | 417 kts | 309° |
| 2026-04-25 10:33 | 33.90476 | 37.85608 | 34025 ft | 409 kts | 298° |
| 2026-04-25 10:34 | 33.93548 | 37.79829 | 34020 ft | 409 kts | 297° |
| 2026-04-25 10:34 | 33.96557 | 37.74085 | 34029 ft | 407 kts | 297° |
| 2026-04-25 10:35 | 33.99579 | 37.68295 | 34036 ft | 407 kts | 297° |
| 2026-04-25 10:35 | 34.02593 | 37.62506 | 34037 ft | 406 kts | 297° |
| 2026-04-25 10:36 | 34.05601 | 37.56768 | 34035 ft | 407 kts | 297° |
| 2026-04-25 10:36 | 34.08627 | 37.50994 | 34035 ft | 407 kts | 297° |
| 2026-04-25 10:37 | 34.11643 | 37.45188 | 34031 ft | 409 kts | 297° |
| 2026-04-25 10:37 | 34.14639 | 37.39396 | 34031 ft | 408 kts | 297° |
| 2026-04-25 10:38 | 34.17652 | 37.33555 | 34029 ft | 409 kts | 297° |
| 2026-04-25 10:38 | 34.19323 | 37.30747 | 34015 ft | 416 kts | 308° |
| 2026-04-25 10:38 | 34.21604 | 37.28536 | 34022 ft | 426 kts | 324° |
| 2026-04-25 10:38 | 34.24339 | 37.27144 | 34028 ft | 438 kts | 340° |
| 2026-04-25 10:39 | 34.27352 | 37.26504 | 34038 ft | 444 kts | 349° |
| 2026-04-25 10:39 | 34.33542 | 37.26087 | 34036 ft | 445 kts | 353° |
| 2026-04-25 10:40 | 34.39746 | 37.25906 | 34035 ft | 446 kts | 353° |
| 2026-04-25 10:40 | 34.45959 | 37.25728 | 34037 ft | 445 kts | 353° |
| 2026-04-25 10:41 | 34.52094 | 37.25552 | 34042 ft | 443 kts | 353° |
| 2026-04-25 10:41 | 34.58268 | 37.25377 | 34040 ft | 444 kts | 353° |
| 2026-04-25 10:42 | 34.64448 | 37.25202 | 34046 ft | 442 kts | 353° |
| 2026-04-25 10:42 | 34.70541 | 37.25028 | 34052 ft | 438 kts | 353° |
| 2026-04-25 10:43 | 34.76657 | 37.24854 | 34052 ft | 442 kts | 353° |
| 2026-04-25 10:43 | 34.82840 | 37.24678 | 34053 ft | 450 kts | 353° |
| 2026-04-25 10:44 | 34.89135 | 37.24499 | 34054 ft | 451 kts | 353° |
| 2026-04-25 10:44 | 34.95381 | 37.24320 | 34053 ft | 451 kts | 353° |
| 2026-04-25 10:45 | 35.01659 | 37.24140 | 34053 ft | 451 kts | 353° |
| 2026-04-25 10:45 | 35.07952 | 37.23960 | 34053 ft | 451 kts | 353° |
| 2026-04-25 10:46 | 35.14211 | 37.23780 | 34053 ft | 451 kts | 353° |
| 2026-04-25 10:46 | 35.20507 | 37.23599 | 34053 ft | 452 kts | 353° |
| 2026-04-25 10:47 | 35.26793 | 37.23418 | 34053 ft | 451 kts | 353° |
| 2026-04-25 10:47 | 35.33041 | 37.23238 | 34053 ft | 452 kts | 353° |
| 2026-04-25 10:48 | 35.39327 | 37.23056 | 34051 ft | 450 kts | 353° |
| 2026-04-25 10:48 | 35.45593 | 37.22875 | 34050 ft | 450 kts | 353° |
| 2026-04-25 10:49 | 35.51830 | 37.22694 | 34046 ft | 450 kts | 353° |
| 2026-04-25 10:49 | 35.58103 | 37.22512 | 34038 ft | 450 kts | 353° |
| 2026-04-25 10:50 | 35.64350 | 37.22330 | 34041 ft | 450 kts | 353° |
| 2026-04-25 10:50 | 35.69584 | 37.22179 | 34041 ft | 451 kts | 353° |
| 2026-04-25 10:51 | 35.75866 | 37.21996 | 34042 ft | 451 kts | 353° |
| 2026-04-25 10:51 | 35.82106 | 37.21813 | 34045 ft | 451 kts | 353° |
| 2026-04-25 10:52 | 35.88394 | 37.21629 | 34046 ft | 451 kts | 353° |
| 2026-04-25 10:52 | 35.94649 | 37.21446 | 34047 ft | 451 kts | 353° |
| 2026-04-25 10:53 | 36.00937 | 37.21283 | 34048 ft | 451 kts | 354° |
| 2026-04-25 10:53 | 36.07229 | 37.21156 | 34050 ft | 451 kts | 354° |
| 2026-04-25 10:54 | 36.13471 | 37.21030 | 34051 ft | 452 kts | 354° |
| 2026-04-25 10:54 | 36.19783 | 37.21676 | 34050 ft | 459 kts | 6° |
| 2026-04-25 10:55 | 36.26010 | 37.23719 | 34047 ft | 463 kts | 13° |
| 2026-04-25 10:55 | 36.32159 | 37.25990 | 34048 ft | 462 kts | 12° |
| 2026-04-25 10:56 | 36.38334 | 37.28218 | 34049 ft | 462 kts | 12° |
| 2026-04-25 10:56 | 36.44518 | 37.30514 | 34045 ft | 463 kts | 13° |
| 2026-04-25 10:57 | 36.50649 | 37.32855 | 34046 ft | 463 kts | 13° |
| 2026-04-25 10:57 | 36.56811 | 37.35211 | 34047 ft | 463 kts | 13° |
| 2026-04-25 10:58 | 36.62978 | 37.37571 | 34049 ft | 463 kts | 13° |
| 2026-04-25 10:58 | 36.69168 | 37.38847 | 34045 ft | 443 kts | 348° |
| 2026-04-25 10:58 | 36.72132 | 37.38036 | 34051 ft | 429 kts | 332° |
| 2026-04-25 10:59 | 36.74789 | 37.36415 | 34057 ft | 420 kts | 322° |
| 2026-04-25 10:59 | 36.79564 | 37.32303 | 34054 ft | 420 kts | 316° |
| 2026-04-25 11:00 | 36.84298 | 37.28010 | 34054 ft | 418 kts | 317° |
| 2026-04-25 11:00 | 36.88988 | 37.23812 | 34053 ft | 418 kts | 317° |
| 2026-04-25 11:01 | 36.93732 | 37.19594 | 34054 ft | 417 kts | 318° |
| 2026-04-25 11:01 | 36.98425 | 37.15435 | 34050 ft | 410 kts | 318° |
| 2026-04-25 11:02 | 37.03115 | 37.11311 | 34052 ft | 415 kts | 317° |
| 2026-04-25 11:02 | 37.07884 | 37.07106 | 34053 ft | 421 kts | 318° |
| 2026-04-25 11:03 | 37.12587 | 37.02950 | 34054 ft | 406 kts | 319° |
| 2026-04-25 11:03 | 37.17116 | 36.98941 | 34040 ft | 390 kts | 320° |
| 2026-04-25 11:04 | 37.21505 | 36.95048 | 34043 ft | 388 kts | 320° |
| 2026-04-25 11:04 | 37.25923 | 36.91137 | 34044 ft | 388 kts | 320° |
| 2026-04-25 11:05 | 37.30309 | 36.87247 | 34045 ft | 387 kts | 320° |
| 2026-04-25 11:05 | 37.34704 | 36.83330 | 34047 ft | 388 kts | 319° |
| 2026-04-25 11:06 | 37.39116 | 36.79387 | 34047 ft | 387 kts | 319° |
| 2026-04-25 11:06 | 37.43507 | 36.75455 | 34046 ft | 387 kts | 320° |
| 2026-04-25 11:07 | 37.47865 | 36.71552 | 34044 ft | 387 kts | 319° |
| 2026-04-25 11:07 | 37.51877 | 36.67113 | 34044 ft | 381 kts | 310° |
| 2026-04-25 11:08 | 37.55439 | 36.62173 | 34048 ft | 380 kts | 308° |
| 2026-04-25 11:08 | 37.58936 | 36.57227 | 34048 ft | 380 kts | 308° |
| 2026-04-25 11:09 | 37.62463 | 36.52232 | 34039 ft | 381 kts | 308° |
| 2026-04-25 11:09 | 37.65975 | 36.47258 | 34033 ft | 381 kts | 308° |
| 2026-04-25 11:10 | 37.69510 | 36.42255 | 34030 ft | 381 kts | 308° |
| 2026-04-25 11:10 | 37.73036 | 36.37250 | 34036 ft | 380 kts | 308° |
| 2026-04-25 11:11 | 37.76556 | 36.32251 | 34036 ft | 381 kts | 308° |
| 2026-04-25 11:11 | 37.80072 | 36.27241 | 34027 ft | 384 kts | 308° |
| 2026-04-25 11:12 | 37.83648 | 36.22137 | 34034 ft | 387 kts | 308° |
| 2026-04-25 11:12 | 37.87194 | 36.17090 | 34028 ft | 385 kts | 308° |
| 2026-04-25 11:13 | 37.90750 | 36.12015 | 34025 ft | 385 kts | 307° |
| 2026-04-25 11:13 | 37.94360 | 36.06877 | 34041 ft | 394 kts | 308° |
| 2026-04-25 11:14 | 37.98008 | 36.01690 | 34048 ft | 396 kts | 308° |
| 2026-04-25 11:14 | 38.01653 | 35.96473 | 34051 ft | 394 kts | 307° |
| 2026-04-25 11:15 | 38.05270 | 35.91275 | 34047 ft | 394 kts | 307° |
| 2026-04-25 11:15 | 38.08903 | 35.86043 | 34048 ft | 394 kts | 307° |
| 2026-04-25 11:16 | 38.14348 | 35.78191 | 34061 ft | 394 kts | 307° |
| 2026-04-25 11:16 | 38.17958 | 35.72983 | 34073 ft | 394 kts | 308° |
| 2026-04-25 11:17 | 38.21585 | 35.67736 | 34076 ft | 394 kts | 308° |
| 2026-04-25 11:17 | 38.25184 | 35.62516 | 34079 ft | 394 kts | 308° |
| 2026-04-25 11:18 | 38.28807 | 35.57254 | 34077 ft | 394 kts | 308° |
| 2026-04-25 11:18 | 38.32413 | 35.52041 | 34077 ft | 394 kts | 308° |
| 2026-04-25 11:19 | 38.36046 | 35.46795 | 34077 ft | 394 kts | 308° |
| 2026-04-25 11:19 | 38.39649 | 35.41553 | 34078 ft | 394 kts | 307° |
| 2026-04-25 11:20 | 38.43255 | 35.36284 | 34081 ft | 394 kts | 307° |
| 2026-04-25 11:20 | 38.46862 | 35.31000 | 34081 ft | 394 kts | 307° |
| 2026-04-25 11:21 | 38.50458 | 35.25727 | 34083 ft | 394 kts | 307° |
| 2026-04-25 11:21 | 38.54015 | 35.20448 | 34085 ft | 394 kts | 307° |
| 2026-04-25 11:22 | 38.56956 | 35.16004 | 34086 ft | 394 kts | 307° |
| 2026-04-25 11:22 | 38.61099 | 35.09727 | 34089 ft | 394 kts | 307° |
| 2026-04-25 11:23 | 38.64619 | 35.04382 | 34090 ft | 394 kts | 307° |
| 2026-04-25 11:23 | 38.68141 | 34.99024 | 34091 ft | 394 kts | 307° |
| 2026-04-25 11:24 | 38.71680 | 34.93632 | 34096 ft | 395 kts | 307° |
| 2026-04-25 11:24 | 38.75202 | 34.88269 | 34104 ft | 396 kts | 307° |
| 2026-04-25 11:25 | 38.78762 | 34.82875 | 34104 ft | 396 kts | 307° |
| 2026-04-25 11:25 | 38.82316 | 34.77467 | 34103 ft | 396 kts | 307° |
| 2026-04-25 11:26 | 38.85844 | 34.72078 | 34105 ft | 396 kts | 307° |
| 2026-04-25 11:26 | 38.89382 | 34.66661 | 34109 ft | 396 kts | 307° |
| 2026-04-25 11:27 | 38.92919 | 34.61267 | 34110 ft | 396 kts | 307° |
| 2026-04-25 11:27 | 38.95886 | 34.56716 | 34109 ft | 396 kts | 307° |
| 2026-04-25 11:28 | 38.99990 | 34.50391 | 34110 ft | 396 kts | 307° |
| 2026-04-25 11:28 | 39.03517 | 34.44936 | 34109 ft | 395 kts | 307° |
| 2026-04-25 11:29 | 39.07014 | 34.39516 | 34108 ft | 395 kts | 307° |
| 2026-04-25 11:29 | 39.10491 | 34.34031 | 34108 ft | 394 kts | 303° |
| 2026-04-25 11:30 | 39.13964 | 34.28586 | 34109 ft | 398 kts | 313° |
| 2026-04-25 11:30 | 39.18125 | 34.23840 | 34109 ft | 399 kts | 316° |
| 2026-04-25 11:31 | 39.22376 | 34.19206 | 34108 ft | 401 kts | 316° |
| 2026-04-25 11:31 | 39.26656 | 34.14611 | 34107 ft | 401 kts | 316° |
| 2026-04-25 11:32 | 39.30977 | 34.10010 | 34107 ft | 402 kts | 317° |
| 2026-04-25 11:32 | 39.35265 | 34.05462 | 34106 ft | 399 kts | 317° |
| 2026-04-25 11:33 | 39.39584 | 34.00890 | 34100 ft | 406 kts | 317° |
| 2026-04-25 11:33 | 39.44075 | 33.96178 | 34111 ft | 423 kts | 319° |
| 2026-04-25 11:34 | 39.48684 | 33.91329 | 34113 ft | 432 kts | 319° |
| 2026-04-25 11:34 | 39.53323 | 33.86435 | 34113 ft | 429 kts | 318° |
| 2026-04-25 11:35 | 39.57941 | 33.81552 | 34112 ft | 428 kts | 319° |
| 2026-04-25 11:35 | 39.62582 | 33.76635 | 34112 ft | 430 kts | 320° |
| 2026-04-25 11:36 | 39.67183 | 33.71751 | 34112 ft | 429 kts | 320° |
| 2026-04-25 11:36 | 39.71800 | 33.66840 | 34112 ft | 429 kts | 320° |
| 2026-04-25 11:37 | 39.75647 | 33.62743 | 34112 ft | 429 kts | 320° |
| 2026-04-25 11:37 | 39.80236 | 33.57845 | 34112 ft | 429 kts | 320° |
| 2026-04-25 11:38 | 39.84853 | 33.52910 | 34112 ft | 429 kts | 320° |
| 2026-04-25 11:38 | 39.89470 | 33.47965 | 34112 ft | 429 kts | 320° |
| 2026-04-25 11:39 | 39.94061 | 33.43039 | 34112 ft | 429 kts | 320° |
| 2026-04-25 11:39 | 39.98664 | 33.38091 | 34112 ft | 428 kts | 320° |
| 2026-04-25 11:40 | 40.03255 | 33.33175 | 34112 ft | 428 kts | 320° |
| 2026-04-25 11:40 | 40.07854 | 33.28217 | 34112 ft | 428 kts | 319° |
| 2026-04-25 11:41 | 40.12428 | 33.23265 | 34112 ft | 428 kts | 319° |
| 2026-04-25 11:41 | 40.17013 | 33.18290 | 34112 ft | 428 kts | 319° |
| 2026-04-25 11:42 | 40.21604 | 33.13303 | 34112 ft | 428 kts | 319° |
| 2026-04-25 11:42 | 40.26165 | 33.08269 | 34113 ft | 428 kts | 318° |
| 2026-04-25 11:43 | 40.30650 | 33.03123 | 34112 ft | 428 kts | 318° |
| 2026-04-25 11:43 | 40.35103 | 32.98003 | 34112 ft | 428 kts | 318° |
| 2026-04-25 11:44 | 40.39586 | 32.92841 | 34112 ft | 428 kts | 317° |
| 2026-04-25 11:44 | 40.44070 | 32.87668 | 34112 ft | 428 kts | 318° |
| 2026-04-25 11:45 | 40.48522 | 32.82524 | 34112 ft | 428 kts | 317° |
| 2026-04-25 11:45 | 40.53010 | 32.77364 | 34112 ft | 428 kts | 318° |
| 2026-04-25 11:46 | 40.57497 | 32.72200 | 34112 ft | 428 kts | 318° |
| 2026-04-25 11:46 | 40.61952 | 32.67051 | 34111 ft | 428 kts | 318° |
| 2026-04-25 11:47 | 40.66403 | 32.61893 | 34112 ft | 428 kts | 318° |
| 2026-04-25 11:47 | 40.70880 | 32.56692 | 34110 ft | 427 kts | 317° |
| 2026-04-25 11:48 | 40.75337 | 32.51502 | 34107 ft | 427 kts | 317° |
| 2026-04-25 11:48 | 40.79792 | 32.46305 | 34099 ft | 427 kts | 317° |
| 2026-04-25 11:49 | 40.84245 | 32.41100 | 34095 ft | 427 kts | 317° |
| 2026-04-25 11:49 | 40.88664 | 32.35925 | 34095 ft | 427 kts | 317° |
| 2026-04-25 11:50 | 40.93119 | 32.30728 | 34089 ft | 426 kts | 317° |
| 2026-04-25 11:50 | 40.97562 | 32.25509 | 34083 ft | 426 kts | 317° |
| 2026-04-25 11:51 | 41.01970 | 32.20309 | 34082 ft | 426 kts | 317° |
| 2026-04-25 11:51 | 41.06407 | 32.15059 | 34082 ft | 426 kts | 317° |
| 2026-04-25 11:52 | 41.10805 | 32.09851 | 34081 ft | 426 kts | 317° |
| 2026-04-25 11:52 | 41.15234 | 32.04602 | 34074 ft | 426 kts | 317° |
| 2026-04-25 11:53 | 41.19645 | 31.99366 | 34068 ft | 425 kts | 317° |
| 2026-04-25 11:53 | 41.24032 | 31.94144 | 34058 ft | 425 kts | 317° |
| 2026-04-25 11:54 | 41.28435 | 31.88892 | 34056 ft | 425 kts | 317° |
| 2026-04-25 11:55 | 41.35073 | 31.81022 | 34053 ft | 425 kts | 317° |
| 2026-04-25 11:55 | 41.39460 | 31.75780 | 34052 ft | 425 kts | 317° |
| 2026-04-25 11:56 | 41.43858 | 31.70500 | 34053 ft | 425 kts | 317° |
| 2026-04-25 11:56 | 41.48219 | 31.65252 | 34053 ft | 425 kts | 317° |
| 2026-04-25 11:57 | 41.52620 | 31.59950 | 34052 ft | 425 kts | 317° |
| 2026-04-25 11:57 | 41.57018 | 31.54663 | 34052 ft | 425 kts | 317° |
| 2026-04-25 11:58 | 41.61412 | 31.49382 | 34052 ft | 425 kts | 317° |
| 2026-04-25 11:58 | 41.65782 | 31.44098 | 34052 ft | 425 kts | 317° |
| 2026-04-25 11:59 | 41.70166 | 31.38775 | 34051 ft | 425 kts | 317° |
| 2026-04-25 11:59 | 41.74521 | 31.33478 | 34051 ft | 425 kts | 317° |
| 2026-04-25 12:00 | 41.81100 | 31.25501 | 34051 ft | 425 kts | 317° |
| 2026-04-25 12:01 | 41.87664 | 31.17492 | 34050 ft | 425 kts | 317° |
| 2026-04-25 12:01 | 41.92005 | 31.12171 | 34049 ft | 425 kts | 317° |
| 2026-04-25 12:02 | 41.98553 | 31.04130 | 34050 ft | 425 kts | 317° |
| 2026-04-25 12:02 | 42.02900 | 30.98789 | 34049 ft | 425 kts | 317° |
| 2026-04-25 12:03 | 42.07276 | 30.93433 | 34049 ft | 425 kts | 317° |
| 2026-04-25 12:03 | 42.11654 | 30.88056 | 34048 ft | 425 kts | 317° |
| 2026-04-25 12:04 | 42.15989 | 30.82700 | 34048 ft | 425 kts | 317° |
| 2026-04-25 12:04 | 42.20355 | 30.77289 | 34048 ft | 425 kts | 317° |
| 2026-04-25 12:05 | 42.24682 | 30.71914 | 34047 ft | 425 kts | 317° |
| 2026-04-25 12:05 | 42.29047 | 30.66488 | 34047 ft | 425 kts | 317° |
| 2026-04-25 12:06 | 42.33375 | 30.61106 | 34046 ft | 425 kts | 317° |
| 2026-04-25 12:06 | 42.37724 | 30.55687 | 34046 ft | 425 kts | 317° |
| 2026-04-25 12:07 | 42.42089 | 30.50277 | 34046 ft | 425 kts | 317° |
| 2026-04-25 12:07 | 42.46426 | 30.44859 | 34046 ft | 425 kts | 316° |
| 2026-04-25 12:08 | 42.50746 | 30.39435 | 34045 ft | 425 kts | 316° |
| 2026-04-25 12:08 | 42.55092 | 30.33965 | 34045 ft | 425 kts | 316° |
| 2026-04-25 12:09 | 42.59429 | 30.28501 | 34045 ft | 425 kts | 316° |
| 2026-04-25 12:09 | 42.63978 | 30.23453 | 34045 ft | 425 kts | 323° |
| 2026-04-25 12:10 | 42.68802 | 30.18783 | 34045 ft | 425 kts | 324° |
| 2026-04-25 12:10 | 42.73617 | 30.14094 | 34046 ft | 425 kts | 324° |
| 2026-04-25 12:11 | 42.78380 | 30.09427 | 34046 ft | 425 kts | 323° |
| 2026-04-25 12:11 | 42.83179 | 30.04706 | 34045 ft | 425 kts | 323° |
| 2026-04-25 12:12 | 42.87168 | 30.00769 | 34045 ft | 425 kts | 323° |
| 2026-04-25 12:12 | 42.92768 | 29.95266 | 34052 ft | 423 kts | 323° |
| 2026-04-25 12:13 | 42.97545 | 29.90562 | 34053 ft | 423 kts | 324° |
| 2026-04-25 12:13 | 43.02321 | 29.85839 | 34052 ft | 428 kts | 324° |
| 2026-04-25 12:14 | 43.07132 | 29.81067 | 34051 ft | 427 kts | 324° |
| 2026-04-25 12:14 | 43.11945 | 29.76281 | 34053 ft | 427 kts | 324° |
| 2026-04-25 12:15 | 43.16730 | 29.71511 | 34053 ft | 427 kts | 324° |
| 2026-04-25 12:15 | 43.21538 | 29.66708 | 34053 ft | 427 kts | 324° |
| 2026-04-25 12:16 | 43.26338 | 29.61903 | 34053 ft | 427 kts | 324° |
| 2026-04-25 12:16 | 43.31103 | 29.57123 | 34053 ft | 427 kts | 324° |
| 2026-04-25 12:17 | 43.35897 | 29.52304 | 34053 ft | 427 kts | 324° |
| 2026-04-25 12:17 | 43.40699 | 29.47467 | 34054 ft | 427 kts | 324° |
| 2026-04-25 12:18 | 43.45464 | 29.42658 | 34053 ft | 427 kts | 324° |
| 2026-04-25 12:18 | 43.47840 | 29.40265 | 34062 ft | 415 kts | 322° |
| 2026-04-25 12:18 | 43.50141 | 29.37952 | 34054 ft | 403 kts | 322° |
| 2026-04-25 12:19 | 43.56810 | 29.31201 | 34053 ft | 397 kts | 322° |
| 2026-04-25 12:20 | 43.61263 | 29.26667 | 34053 ft | 395 kts | 324° |
| 2026-04-25 12:20 | 43.65666 | 29.22174 | 34053 ft | 395 kts | 324° |
| 2026-04-25 12:21 | 43.70085 | 29.17659 | 34053 ft | 395 kts | 324° |
| 2026-04-25 12:21 | 43.74494 | 29.13074 | 34053 ft | 396 kts | 322° |
| 2026-04-25 12:22 | 43.78665 | 29.08111 | 34053 ft | 395 kts | 320° |
| 2026-04-25 12:22 | 43.82094 | 29.03959 | 34053 ft | 393 kts | 320° |
| 2026-04-25 12:23 | 43.86920 | 28.98184 | 34053 ft | 393 kts | 320° |
| 2026-04-25 12:23 | 43.90363 | 28.94048 | 34045 ft | 393 kts | 320° |
| 2026-04-25 12:24 | 43.94500 | 28.89069 | 34027 ft | 393 kts | 320° |
| 2026-04-25 12:24 | 43.98600 | 28.84124 | 34021 ft | 391 kts | 319° |
| 2026-04-25 12:25 | 44.02715 | 28.79155 | 34021 ft | 391 kts | 319° |
| 2026-04-25 12:25 | 44.06825 | 28.74200 | 34022 ft | 391 kts | 319° |
| 2026-04-25 12:26 | 44.10920 | 28.69278 | 34021 ft | 391 kts | 319° |
| 2026-04-25 12:26 | 44.15030 | 28.64305 | 34022 ft | 390 kts | 319° |
| 2026-04-25 12:27 | 44.19102 | 28.59358 | 34022 ft | 390 kts | 319° |
| 2026-04-25 12:27 | 44.23195 | 28.54373 | 34023 ft | 390 kts | 319° |
| 2026-04-25 12:28 | 44.27197 | 28.49317 | 34022 ft | 389 kts | 314° |
| 2026-04-25 12:28 | 44.30561 | 28.43413 | 34023 ft | 390 kts | 305° |
| 2026-04-25 12:29 | 44.33503 | 28.37046 | 34023 ft | 390 kts | 303° |
| 2026-04-25 12:29 | 44.36407 | 28.30622 | 34023 ft | 390 kts | 303° |
| 2026-04-25 12:30 | 44.39302 | 28.24200 | 34023 ft | 390 kts | 303° |
| 2026-04-25 12:30 | 44.42179 | 28.17810 | 34023 ft | 390 kts | 303° |
| 2026-04-25 12:31 | 44.45056 | 28.11412 | 34022 ft | 390 kts | 303° |
| 2026-04-25 12:31 | 44.47952 | 28.04965 | 34022 ft | 390 kts | 303° |
| 2026-04-25 12:32 | 44.50403 | 27.99559 | 34022 ft | 390 kts | 303° |
| 2026-04-25 12:34 | 44.52565 | 27.94757 | 34019 ft | 389 kts | 303° |
| 2026-04-25 12:35 | 44.55427 | 27.88352 | 34021 ft | 389 kts | 303° |
| 2026-04-25 12:35 | 44.58295 | 27.81901 | 34019 ft | 389 kts | 303° |
| 2026-04-25 12:36 | 44.61125 | 27.75516 | 33522 ft | 383 kts | 303° |
| 2026-04-25 12:36 | 44.62544 | 27.72312 | 33014 ft | 383 kts | 303° |
| 2026-04-25 12:36 | 44.63899 | 27.69105 | 32517 ft | 382 kts | 297° |
| 2026-04-25 12:36 | 44.64798 | 27.65597 | 32091 ft | 382 kts | 285° |
| 2026-04-25 12:37 | 44.65172 | 27.61871 | 31553 ft | 385 kts | 277° |
| 2026-04-25 12:37 | 44.65280 | 27.58186 | 31252 ft | 381 kts | 274° |
| 2026-04-25 12:37 | 44.65267 | 27.54479 | 30862 ft | 378 kts | 272° |
| 2026-04-25 12:37 | 44.65207 | 27.50797 | 30471 ft | 375 kts | 272° |
| 2026-04-25 12:38 | 44.65137 | 27.47136 | 30081 ft | 373 kts | 272° |
| 2026-04-25 12:38 | 44.65066 | 27.43511 | 29697 ft | 370 kts | 272° |
| 2026-04-25 12:38 | 44.65015 | 27.39907 | 29303 ft | 367 kts | 272° |
| 2026-04-25 12:38 | 44.64953 | 27.36318 | 28909 ft | 365 kts | 272° |
| 2026-04-25 12:39 | 44.64883 | 27.32813 | 28522 ft | 362 kts | 271° |
| 2026-04-25 12:39 | 44.64806 | 27.29276 | 28130 ft | 360 kts | 271° |
| 2026-04-25 12:39 | 44.64725 | 27.25774 | 27742 ft | 358 kts | 271° |
| 2026-04-25 12:39 | 44.64640 | 27.22292 | 27354 ft | 355 kts | 271° |
| 2026-04-25 12:40 | 44.64554 | 27.18824 | 26967 ft | 353 kts | 271° |
| 2026-04-25 12:40 | 44.64467 | 27.15432 | 26585 ft | 351 kts | 271° |
| 2026-04-25 12:40 | 44.64378 | 27.12019 | 26202 ft | 348 kts | 271° |
| 2026-04-25 12:40 | 44.64290 | 27.08628 | 25818 ft | 346 kts | 270° |
| 2026-04-25 12:41 | 44.64201 | 27.05258 | 25438 ft | 344 kts | 270° |
| 2026-04-25 12:41 | 44.64128 | 27.01907 | 25049 ft | 342 kts | 273° |
| 2026-04-25 12:41 | 44.64368 | 26.98609 | 24651 ft | 338 kts | 283° |
| 2026-04-25 12:41 | 44.64988 | 26.95418 | 24166 ft | 338 kts | 289° |
| 2026-04-25 12:42 | 44.65797 | 26.92350 | 23868 ft | 333 kts | 293° |
| 2026-04-25 12:42 | 44.66388 | 26.90364 | 23627 ft | 331 kts | 294° |
| 2026-04-25 12:42 | 44.67585 | 26.86437 | 23142 ft | 328 kts | 294° |
| 2026-04-25 12:42 | 44.68477 | 26.83491 | 22774 ft | 327 kts | 294° |
| 2026-04-25 12:43 | 44.69364 | 26.80557 | 22404 ft | 325 kts | 294° |
| 2026-04-25 12:43 | 44.70183 | 26.77600 | 22019 ft | 324 kts | 287° |
| 2026-04-25 12:43 | 44.70605 | 26.71434 | 21303 ft | 324 kts | 270° |
| 2026-04-25 12:44 | 44.70464 | 26.68306 | 20943 ft | 323 kts | 267° |
| 2026-04-25 12:44 | 44.70236 | 26.65160 | 20580 ft | 322 kts | 266° |
| 2026-04-25 12:44 | 44.69770 | 26.58911 | 19859 ft | 319 kts | 266° |
| 2026-04-25 12:45 | 44.69543 | 26.55812 | 19500 ft | 318 kts | 266° |
| 2026-04-25 12:45 | 44.69318 | 26.52719 | 19143 ft | 317 kts | 266° |
| 2026-04-25 12:45 | 44.68878 | 26.46576 | 18435 ft | 314 kts | 266° |
| 2026-04-25 12:46 | 44.68665 | 26.43515 | 18084 ft | 313 kts | 266° |
| 2026-04-25 12:46 | 44.68451 | 26.40515 | 17742 ft | 312 kts | 266° |
| 2026-04-25 12:46 | 44.68230 | 26.37475 | 17396 ft | 310 kts | 266° |
| 2026-04-25 12:46 | 44.68008 | 26.34452 | 17056 ft | 309 kts | 266° |
| 2026-04-25 12:47 | 44.67788 | 26.31492 | 16725 ft | 307 kts | 266° |
| 2026-04-25 12:47 | 44.67565 | 26.28512 | 16392 ft | 306 kts | 266° |
| 2026-04-25 12:47 | 44.67342 | 26.25545 | 16061 ft | 304 kts | 266° |
| 2026-04-25 12:47 | 44.67119 | 26.22588 | 15732 ft | 303 kts | 265° |
| 2026-04-25 12:48 | 44.66896 | 26.19655 | 15407 ft | 301 kts | 265° |
| 2026-04-25 12:48 | 44.66794 | 26.18303 | 15257 ft | 300 kts | 265° |
| 2026-04-25 12:48 | 44.66734 | 26.17511 | 15170 ft | 300 kts | 265° |
| 2026-04-25 12:48 | 44.66514 | 26.14609 | 14972 ft | 294 kts | 265° |
| 2026-04-25 12:49 | 44.66301 | 26.11788 | 14765 ft | 289 kts | 266° |
| 2026-04-25 12:49 | 44.66099 | 26.09018 | 14488 ft | 287 kts | 266° |
| 2026-04-25 12:49 | 44.65893 | 26.06234 | 14131 ft | 288 kts | 265° |
| 2026-04-25 12:49 | 44.65680 | 26.03413 | 13681 ft | 292 kts | 265° |
| 2026-04-25 12:50 | 44.65462 | 26.00558 | 13231 ft | 295 kts | 265° |
| 2026-04-25 12:50 | 44.65240 | 25.97679 | 12780 ft | 298 kts | 265° |
| 2026-04-25 12:50 | 44.65014 | 25.94768 | 12328 ft | 300 kts | 265° |
| 2026-04-25 12:50 | 44.64788 | 25.91877 | 11883 ft | 302 kts | 264° |
| 2026-04-25 12:51 | 44.64558 | 25.88939 | 11433 ft | 304 kts | 264° |
| 2026-04-25 12:51 | 44.64329 | 25.86016 | 10987 ft | 305 kts | 264° |
| 2026-04-25 12:51 | 44.64096 | 25.83043 | 10528 ft | 300 kts | 264° |
| 2026-04-25 12:51 | 44.63868 | 25.80134 | 10072 ft | 294 kts | 264° |
| 2026-04-25 12:52 | 44.63649 | 25.77333 | 9626 ft | 290 kts | 264° |
| 2026-04-25 12:52 | 44.63428 | 25.74537 | 9173 ft | 285 kts | 264° |
| 2026-04-25 12:52 | 44.63211 | 25.71784 | 8722 ft | 282 kts | 265° |
| 2026-04-25 12:52 | 44.62995 | 25.69057 | 8269 ft | 279 kts | 265° |
| 2026-04-25 12:53 | 44.62782 | 25.66367 | 7819 ft | 277 kts | 265° |
| 2026-04-25 12:53 | 44.62568 | 25.63685 | 7366 ft | 274 kts | 265° |
| 2026-04-25 12:53 | 44.62355 | 25.61020 | 6913 ft | 273 kts | 265° |
| 2026-04-25 12:53 | 44.62144 | 25.58390 | 6463 ft | 271 kts | 265° |
| 2026-04-25 12:54 | 44.61934 | 25.55761 | 6010 ft | 269 kts | 264° |
| 2026-04-25 12:54 | 44.61727 | 25.53187 | 5565 ft | 268 kts | 264° |
| 2026-04-25 12:54 | 44.61467 | 25.50611 | 5156 ft | 265 kts | 256° |
| 2026-04-25 12:54 | 44.60614 | 25.48371 | 4961 ft | 257 kts | 229° |
| 2026-04-25 12:55 | 44.59192 | 25.46946 | 4782 ft | 249 kts | 202° |
| 2026-04-25 12:55 | 44.58086 | 25.46548 | 4671 ft | 244 kts | 188° |
| 2026-04-25 12:55 | 44.55878 | 25.46584 | 4441 ft | 236 kts | 173° |
| 2026-04-25 12:55 | 44.54281 | 25.46950 | 4244 ft | 230 kts | 162° |
| 2026-04-25 12:56 | 44.52964 | 25.48125 | 4051 ft | 223 kts | 133° |
| 2026-04-25 12:56 | 44.52266 | 25.50004 | 3871 ft | 216 kts | 103° |
| 2026-04-25 12:56 | 44.52165 | 25.52054 | 3752 ft | 208 kts | 89° |
| 2026-04-25 12:56 | 44.52251 | 25.54053 | 3579 ft | 203 kts | 85° |
| 2026-04-25 12:57 | 44.52400 | 25.56003 | 3402 ft | 199 kts | 83° |
| 2026-04-25 12:57 | 44.52568 | 25.57909 | 3222 ft | 194 kts | 83° |
| 2026-04-25 12:57 | 44.52721 | 25.59738 | 3045 ft | 189 kts | 83° |
| 2026-04-25 12:57 | 44.52869 | 25.61561 | 2866 ft | 186 kts | 83° |
| 2026-04-25 12:58 | 44.53014 | 25.63362 | 2691 ft | 186 kts | 83° |
| 2026-04-25 12:58 | 44.53158 | 25.65170 | 2515 ft | 185 kts | 83° |
| 2026-04-25 12:58 | 44.53300 | 25.66954 | 2466 ft | 184 kts | 83° |
| 2026-04-25 12:58 | 44.53441 | 25.68722 | 2473 ft | 184 kts | 83° |
| 2026-04-25 12:59 | 44.53597 | 25.70499 | 2479 ft | 185 kts | 81° |
| 2026-04-25 12:59 | 44.53868 | 25.72269 | 2488 ft | 186 kts | 76° |
| 2026-04-25 12:59 | 44.54183 | 25.74033 | 2488 ft | 186 kts | 76° |
| 2026-04-25 12:59 | 44.54495 | 25.75770 | 2487 ft | 186 kts | 76° |
| 2026-04-25 13:00 | 44.54706 | 25.76956 | 2489 ft | 185 kts | 76° |
| 2026-04-25 13:00 | 44.55429 | 25.81032 | 2512 ft | 185 kts | 76° |
| 2026-04-25 13:00 | 44.55665 | 25.82788 | 2501 ft | 185 kts | 81° |
| 2026-04-25 13:01 | 44.55835 | 25.84577 | 2495 ft | 185 kts | 83° |
| 2026-04-25 13:01 | 44.55984 | 25.86366 | 2487 ft | 182 kts | 83° |
| 2026-04-25 13:01 | 44.56120 | 25.88082 | 2486 ft | 173 kts | 83° |
| 2026-04-25 13:01 | 44.56247 | 25.89735 | 2474 ft | 168 kts | 84° |
| 2026-04-25 13:02 | 44.56371 | 25.91348 | 2465 ft | 164 kts | 84° |
| 2026-04-25 13:02 | 44.56491 | 25.92935 | 2430 ft | 165 kts | 84° |
| 2026-04-25 13:02 | 44.56613 | 25.94542 | 2256 ft | 165 kts | 84° |
| 2026-04-25 13:02 | 44.56732 | 25.96118 | 2029 ft | 159 kts | 84° |
| 2026-04-25 13:03 | 44.56845 | 25.97612 | 1824 ft | 150 kts | 84° |
| 2026-04-25 13:03 | 44.56952 | 25.99027 | 1617 ft | 144 kts | 83° |
| 2026-04-25 13:03 | 44.57055 | 26.00390 | 1465 ft | 137 kts | 83° |
| 2026-04-25 13:03 | 44.57157 | 26.01732 | 1264 ft | 138 kts | 82° |
| 2026-04-25 13:04 | 44.57258 | 26.03064 | 1076 ft | 137 kts | 82° |
| 2026-04-25 13:04 | 44.57358 | 26.04390 | 895 ft | 139 kts | 82° |
| 2026-04-25 13:04 | 44.57460 | 26.05736 | 710 ft | 138 kts | 82° |
| 2026-04-25 13:04 | 44.57561 | 26.07068 | 530 ft | 136 kts | 83° |
| 2026-04-25 13:05 | 44.57661 | 26.08387 | 351 ft | 135 kts | 83° |
| 2026-04-25 13:05 | 44.57754 | 26.09592 | 322 ft | 105 kts | 82° |
| 2026-04-25 13:05 | 44.57801 | 26.10222 | 322 ft | 19 kts | 87° |
| 2026-04-25 13:05 | 44.57806 | 26.10315 | 322 ft | 14 kts | 84° |
| 2026-04-25 13:06 | 44.57816 | 26.10459 | 322 ft | 13 kts | 84° |
| 2026-04-25 13:06 | 44.57821 | 26.10534 | 322 ft | 10 kts | 84° |
| 2026-04-25 13:06 | 44.57826 | 26.10619 | 322 ft | 10 kts | 87° |
| 2026-04-25 13:06 | 44.57816 | 26.10732 | 322 ft | 14 kts | 105° |
| 2026-04-25 13:07 | 44.57775 | 26.10874 | 322 ft | 17 kts | 112° |
| 2026-04-25 13:07 | 44.57723 | 26.11024 | 322 ft | 9 kts | 147° |
| 2026-04-25 13:07 | 44.57696 | 26.10953 | 322 ft | 9 kts | 271° |
| 2026-04-25 13:07 | 44.57697 | 26.10893 | 322 ft | 10 kts | 271° |
| 2026-04-25 13:08 | 44.57698 | 26.10787 | 322 ft | 12 kts | 267° |
| 2026-04-25 13:08 | 44.57689 | 26.10657 | 322 ft | 15 kts | 263° |
| 2026-04-25 13:08 | 44.57677 | 26.10504 | 322 ft | 17 kts | 263° |
| 2026-04-25 13:08 | 44.57663 | 26.10331 | 322 ft | 19 kts | 264° |
| 2026-04-25 13:09 | 44.57650 | 26.10144 | 322 ft | 20 kts | 264° |
| 2026-04-25 13:09 | 44.57637 | 26.09938 | 322 ft | 22 kts | 265° |
| 2026-04-25 13:09 | 44.57625 | 26.09725 | 322 ft | 23 kts | 258° |
| 2026-04-25 13:09 | 44.57601 | 26.09502 | 322 ft | 24 kts | 265° |
| 2026-04-25 13:10 | 44.57583 | 26.09267 | 322 ft | 25 kts | 264° |
| 2026-04-25 13:10 | 44.57566 | 26.09028 | 322 ft | 25 kts | 263° |
| 2026-04-25 13:10 | 44.57548 | 26.08778 | 322 ft | 26 kts | 265° |
| 2026-04-25 13:10 | 44.57529 | 26.08556 | 322 ft | 17 kts | 267° |
| 2026-04-25 13:11 | 44.57493 | 26.08451 | 322 ft | 12 kts | 162° |
| 2026-04-25 13:11 | 44.57405 | 26.08472 | 322 ft | 14 kts | 175° |
| 2026-04-25 13:11 | 44.57339 | 26.08457 | 322 ft | 9 kts | 248° |
| 2026-04-25 13:11 | 44.57327 | 26.08364 | 322 ft | 10 kts | 262° |
| 2026-04-25 13:12 | 44.57302 | 26.08282 | 322 ft | 4 kts | 225° |
| 2026-04-25 13:12 | 44.57275 | 26.08251 | 322 ft | 6 kts | 216° |
| 2026-04-25 13:12 | 44.57231 | 26.08230 | 322 ft | 7 kts | 211° |
| 2026-04-25 13:12 | 44.57203 | 26.08209 | 322 ft | 0 kts | 207° |